<?xml version='1.0' encoding='UTF-8'?><gpx version="1.1" creator="JPX - https://github.com/jenetics/jpx" xmlns="http://www.topografix.com/GPX/1/1"><trk><trkseg><trkpt lat="45.7248853" lon="8.6297625"><ele>207.0</ele><time>2026-05-01T15:49:53.71Z</time></trkpt><trkpt lat="45.724878" lon="8.6296462"><ele>207.0</ele><time>2026-05-01T15:49:57.706Z</time></trkpt><trkpt lat="45.7248761" lon="8.6295448"><ele>207.0</ele><time>2026-05-01T15:50:01.706Z</time></trkpt><trkpt lat="45.7249016" lon="8.6294373"><ele>207.0</ele><time>2026-05-01T15:50:07.705Z</time></trkpt><trkpt lat="45.7249561" lon="8.6293835"><ele>207.0</ele><time>2026-05-01T15:50:09.705Z</time></trkpt><trkpt lat="45.7250364" lon="8.6293129"><ele>207.0</ele><time>2026-05-01T15:50:11.706Z</time></trkpt><trkpt lat="45.7251315" lon="8.6292347"><ele>206.5</ele><time>2026-05-01T15:50:13.707Z</time></trkpt><trkpt lat="45.7252479" lon="8.6291667"><ele>206.0</ele><time>2026-05-01T15:50:15.707Z</time></trkpt><trkpt lat="45.7253141" lon="8.6291439"><ele>205.5</ele><time>2026-05-01T15:50:16.706Z</time></trkpt><trkpt lat="45.7253837" lon="8.6291329"><ele>205.0</ele><time>2026-05-01T15:50:17.706Z</time></trkpt><trkpt lat="45.7254489" lon="8.6291254"><ele>204.5</ele><time>2026-05-01T15:50:18.706Z</time></trkpt><trkpt lat="45.7255134" lon="8.6291241"><ele>204.0</ele><time>2026-05-01T15:50:19.707Z</time></trkpt><trkpt lat="45.7256262" lon="8.6291703"><ele>204.0</ele><time>2026-05-01T15:50:21.705Z</time></trkpt><trkpt lat="45.7257051" lon="8.6292316"><ele>204.0</ele><time>2026-05-01T15:50:23.705Z</time></trkpt><trkpt lat="45.7257501" lon="8.6291435"><ele>204.0</ele><time>2026-05-01T15:50:26.705Z</time></trkpt><trkpt lat="45.7257017" lon="8.6290838"><ele>204.0</ele><time>2026-05-01T15:50:28.706Z</time></trkpt><trkpt lat="45.7256095" lon="8.6290997"><ele>204.0</ele><time>2026-05-01T15:50:30.706Z</time></trkpt><trkpt lat="45.7255078" lon="8.6291117"><ele>204.0</ele><time>2026-05-01T15:50:32.706Z</time></trkpt><trkpt lat="45.7253956" lon="8.6291387"><ele>204.0</ele><time>2026-05-01T15:50:34.706Z</time></trkpt><trkpt lat="45.7252721" lon="8.6291693"><ele>204.0</ele><time>2026-05-01T15:50:36.706Z</time></trkpt><trkpt lat="45.7252054" lon="8.6291929"><ele>204.0</ele><time>2026-05-01T15:50:37.705Z</time></trkpt><trkpt lat="45.7251409" lon="8.6292252"><ele>204.0</ele><time>2026-05-01T15:50:38.706Z</time></trkpt><trkpt lat="45.7250766" lon="8.6292665"><ele>204.0</ele><time>2026-05-01T15:50:39.707Z</time></trkpt><trkpt lat="45.7250179" lon="8.6293112"><ele>204.0</ele><time>2026-05-01T15:50:40.705Z</time></trkpt><trkpt lat="45.7249579" lon="8.6293525"><ele>204.5</ele><time>2026-05-01T15:50:41.705Z</time></trkpt><trkpt lat="45.7248587" lon="8.6294066"><ele>205.0</ele><time>2026-05-01T15:50:43.707Z</time></trkpt><trkpt lat="45.7247517" lon="8.6294547"><ele>205.5</ele><time>2026-05-01T15:50:54.706Z</time></trkpt><trkpt lat="45.7246881" lon="8.6294669"><ele>206.0</ele><time>2026-05-01T15:51:03.705Z</time></trkpt><trkpt lat="45.7246205" lon="8.6294801"><ele>206.5</ele><time>2026-05-01T15:51:05.707Z</time></trkpt><trkpt lat="45.7245521" lon="8.6294988"><ele>207.0</ele><time>2026-05-01T15:51:07.706Z</time></trkpt><trkpt lat="45.7244811" lon="8.6295352"><ele>207.0</ele><time>2026-05-01T15:51:10.706Z</time></trkpt><trkpt lat="45.7244314" lon="8.6295944"><ele>207.0</ele><time>2026-05-01T15:51:12.705Z</time></trkpt><trkpt lat="45.7243795" lon="8.6296624"><ele>207.0</ele><time>2026-05-01T15:51:15.706Z</time></trkpt><trkpt lat="45.7242991" lon="8.6297131"><ele>207.0</ele><time>2026-05-01T15:51:36.707Z</time></trkpt><trkpt lat="45.7242289" lon="8.6297189"><ele>207.0</ele><time>2026-05-01T15:51:39.706Z</time></trkpt><trkpt lat="45.7241275" lon="8.6296822"><ele>207.0</ele><time>2026-05-01T15:51:42.705Z</time></trkpt><trkpt lat="45.724028" lon="8.6295786"><ele>206.5</ele><time>2026-05-01T15:51:44.707Z</time></trkpt><trkpt lat="45.7239869" lon="8.6294953"><ele>206.0</ele><time>2026-05-01T15:51:45.707Z</time></trkpt><trkpt lat="45.7239506" lon="8.6293998"><ele>205.5</ele><time>2026-05-01T15:51:46.706Z</time></trkpt><trkpt lat="45.7239113" lon="8.6292862"><ele>205.0</ele><time>2026-05-01T15:51:47.707Z</time></trkpt><trkpt lat="45.7238632" lon="8.6291667"><ele>204.5</ele><time>2026-05-01T15:51:48.705Z</time></trkpt><trkpt lat="45.7238124" lon="8.6290359"><ele>204.0</ele><time>2026-05-01T15:51:49.706Z</time></trkpt><trkpt lat="45.7237589" lon="8.6289001"><ele>204.0</ele><time>2026-05-01T15:51:50.705Z</time></trkpt><trkpt lat="45.7237091" lon="8.6287675"><ele>204.0</ele><time>2026-05-01T15:51:51.698Z</time></trkpt><trkpt lat="45.723666" lon="8.6286153"><ele>204.0</ele><time>2026-05-01T15:51:52.691Z</time></trkpt><trkpt lat="45.7236401" lon="8.6284564"><ele>204.0</ele><time>2026-05-01T15:51:53.704Z</time></trkpt><trkpt lat="45.7236371" lon="8.6282971"><ele>204.0</ele><time>2026-05-01T15:51:54.697Z</time></trkpt><trkpt lat="45.7236407" lon="8.6281414"><ele>204.0</ele><time>2026-05-01T15:51:55.691Z</time></trkpt><trkpt lat="45.7236527" lon="8.6279943"><ele>204.0</ele><time>2026-05-01T15:51:56.692Z</time></trkpt><trkpt lat="45.7236707" lon="8.6278475"><ele>204.0</ele><time>2026-05-01T15:51:57.693Z</time></trkpt><trkpt lat="45.723691" lon="8.6276976"><ele>204.0</ele><time>2026-05-01T15:51:58.693Z</time></trkpt><trkpt lat="45.7237099" lon="8.6275527"><ele>204.0</ele><time>2026-05-01T15:51:59.693Z</time></trkpt><trkpt lat="45.723732" lon="8.6274062"><ele>203.6</ele><time>2026-05-01T15:52:00.692Z</time></trkpt><trkpt lat="45.7237661" lon="8.6272654"><ele>203.2</ele><time>2026-05-01T15:52:01.693Z</time></trkpt><trkpt lat="45.7238165" lon="8.6271452"><ele>202.79999999999998</ele><time>2026-05-01T15:52:02.693Z</time></trkpt><trkpt lat="45.7238896" lon="8.6270368"><ele>202.39999999999998</ele><time>2026-05-01T15:52:03.692Z</time></trkpt><trkpt lat="45.7239731" lon="8.626959"><ele>202.0</ele><time>2026-05-01T15:52:04.692Z</time></trkpt><trkpt lat="45.7240695" lon="8.6268913"><ele>201.25</ele><time>2026-05-01T15:52:05.693Z</time></trkpt><trkpt lat="45.7241732" lon="8.626826"><ele>200.5</ele><time>2026-05-01T15:52:06.693Z</time></trkpt><trkpt lat="45.7242844" lon="8.6267567"><ele>199.75</ele><time>2026-05-01T15:52:07.693Z</time></trkpt><trkpt lat="45.7243984" lon="8.6266845"><ele>199.0</ele><time>2026-05-01T15:52:08.693Z</time></trkpt><trkpt lat="45.724518" lon="8.6266106"><ele>199.0</ele><time>2026-05-01T15:52:09.692Z</time></trkpt><trkpt lat="45.7246449" lon="8.6265327"><ele>199.0</ele><time>2026-05-01T15:52:10.692Z</time></trkpt><trkpt lat="45.724779" lon="8.6264496"><ele>199.0</ele><time>2026-05-01T15:52:11.693Z</time></trkpt><trkpt lat="45.7249086" lon="8.62637"><ele>199.0</ele><time>2026-05-01T15:52:12.693Z</time></trkpt><trkpt lat="45.7250452" lon="8.6262847"><ele>199.0</ele><time>2026-05-01T15:52:13.692Z</time></trkpt><trkpt lat="45.7251855" lon="8.6261967"><ele>199.0</ele><time>2026-05-01T15:52:14.692Z</time></trkpt><trkpt lat="45.725327" lon="8.6261088"><ele>199.0</ele><time>2026-05-01T15:52:15.692Z</time></trkpt><trkpt lat="45.7254701" lon="8.6260204"><ele>199.33333333333331</ele><time>2026-05-01T15:52:16.692Z</time></trkpt><trkpt lat="45.725615" lon="8.6259315"><ele>199.66666666666669</ele><time>2026-05-01T15:52:17.692Z</time></trkpt><trkpt lat="45.7257621" lon="8.625842"><ele>200.0</ele><time>2026-05-01T15:52:18.693Z</time></trkpt><trkpt lat="45.7259101" lon="8.6257506"><ele>200.0</ele><time>2026-05-01T15:52:19.692Z</time></trkpt><trkpt lat="45.7260524" lon="8.6256619"><ele>200.0</ele><time>2026-05-01T15:52:20.693Z</time></trkpt><trkpt lat="45.7261903" lon="8.6255749"><ele>200.0</ele><time>2026-05-01T15:52:21.693Z</time></trkpt><trkpt lat="45.7263309" lon="8.6254874"><ele>200.33333333333334</ele><time>2026-05-01T15:52:22.692Z</time></trkpt><trkpt lat="45.7264712" lon="8.6254003"><ele>200.66666666666669</ele><time>2026-05-01T15:52:23.693Z</time></trkpt><trkpt lat="45.7266163" lon="8.6253112"><ele>201.0</ele><time>2026-05-01T15:52:24.692Z</time></trkpt><trkpt lat="45.7267552" lon="8.6252269"><ele>200.66666666666669</ele><time>2026-05-01T15:52:25.692Z</time></trkpt><trkpt lat="45.7268953" lon="8.6251413"><ele>200.33333333333334</ele><time>2026-05-01T15:52:26.693Z</time></trkpt><trkpt lat="45.7270431" lon="8.6250507"><ele>200.0</ele><time>2026-05-01T15:52:27.692Z</time></trkpt><trkpt lat="45.7271802" lon="8.6249648"><ele>200.0</ele><time>2026-05-01T15:52:28.692Z</time></trkpt><trkpt lat="45.727322" lon="8.6248746"><ele>200.0</ele><time>2026-05-01T15:52:29.692Z</time></trkpt><trkpt lat="45.7274641" lon="8.6247827"><ele>200.0</ele><time>2026-05-01T15:52:30.693Z</time></trkpt><trkpt lat="45.7276062" lon="8.6246818"><ele>200.0</ele><time>2026-05-01T15:52:31.692Z</time></trkpt><trkpt lat="45.7277437" lon="8.6245701"><ele>200.0</ele><time>2026-05-01T15:52:32.693Z</time></trkpt><trkpt lat="45.7278771" lon="8.6244488"><ele>200.0</ele><time>2026-05-01T15:52:33.692Z</time></trkpt><trkpt lat="45.7280069" lon="8.6243155"><ele>200.33333333333334</ele><time>2026-05-01T15:52:34.693Z</time></trkpt><trkpt lat="45.7281381" lon="8.6241621"><ele>200.66666666666669</ele><time>2026-05-01T15:52:35.692Z</time></trkpt><trkpt lat="45.7282567" lon="8.6240027"><ele>201.0</ele><time>2026-05-01T15:52:36.692Z</time></trkpt><trkpt lat="45.7283724" lon="8.6238278"><ele>201.33333333333331</ele><time>2026-05-01T15:52:37.693Z</time></trkpt><trkpt lat="45.7284823" lon="8.6236414"><ele>201.66666666666666</ele><time>2026-05-01T15:52:38.692Z</time></trkpt><trkpt lat="45.7285807" lon="8.6234558"><ele>202.0</ele><time>2026-05-01T15:52:39.692Z</time></trkpt><trkpt lat="45.7286799" lon="8.6232537"><ele>202.33333333333331</ele><time>2026-05-01T15:52:40.692Z</time></trkpt><trkpt lat="45.7287722" lon="8.6230508"><ele>202.66666666666669</ele><time>2026-05-01T15:52:41.692Z</time></trkpt><trkpt lat="45.7288617" lon="8.6228466"><ele>203.0</ele><time>2026-05-01T15:52:42.692Z</time></trkpt><trkpt lat="45.7289517" lon="8.6226403"><ele>203.0</ele><time>2026-05-01T15:52:43.692Z</time></trkpt><trkpt lat="45.7290434" lon="8.6224341"><ele>203.0</ele><time>2026-05-01T15:52:44.692Z</time></trkpt><trkpt lat="45.7291369" lon="8.6222284"><ele>203.0</ele><time>2026-05-01T15:52:45.692Z</time></trkpt><trkpt lat="45.7292286" lon="8.6220264"><ele>203.0</ele><time>2026-05-01T15:52:46.693Z</time></trkpt><trkpt lat="45.7293201" lon="8.6218218"><ele>203.0</ele><time>2026-05-01T15:52:47.693Z</time></trkpt><trkpt lat="45.729412" lon="8.6216154"><ele>203.0</ele><time>2026-05-01T15:52:48.693Z</time></trkpt><trkpt lat="45.7294972" lon="8.6214234"><ele>203.0</ele><time>2026-05-01T15:52:49.693Z</time></trkpt><trkpt lat="45.7295848" lon="8.621223"><ele>203.0</ele><time>2026-05-01T15:52:50.693Z</time></trkpt><trkpt lat="45.7296734" lon="8.6210193"><ele>203.0</ele><time>2026-05-01T15:52:51.693Z</time></trkpt><trkpt lat="45.7297588" lon="8.6208234"><ele>203.0</ele><time>2026-05-01T15:52:52.692Z</time></trkpt><trkpt lat="45.7298401" lon="8.6206385"><ele>203.0</ele><time>2026-05-01T15:52:53.693Z</time></trkpt><trkpt lat="45.7299192" lon="8.6204614"><ele>203.0</ele><time>2026-05-01T15:52:54.692Z</time></trkpt><trkpt lat="45.7299869" lon="8.620306"><ele>203.0</ele><time>2026-05-01T15:52:55.693Z</time></trkpt><trkpt lat="45.7300445" lon="8.6201747"><ele>202.66666666666669</ele><time>2026-05-01T15:52:56.693Z</time></trkpt><trkpt lat="45.7300861" lon="8.6200812"><ele>202.33333333333334</ele><time>2026-05-01T15:52:57.692Z</time></trkpt><trkpt lat="45.7301337" lon="8.6199744"><ele>202.0</ele><time>2026-05-01T15:52:59.693Z</time></trkpt><trkpt lat="45.7301728" lon="8.6198868"><ele>201.66666666666669</ele><time>2026-05-01T15:53:02.692Z</time></trkpt><trkpt lat="45.7302082" lon="8.619805"><ele>201.33333333333334</ele><time>2026-05-01T15:53:04.692Z</time></trkpt><trkpt lat="45.7302617" lon="8.6196843"><ele>201.0</ele><time>2026-05-01T15:53:06.692Z</time></trkpt><trkpt lat="45.7303289" lon="8.6195339"><ele>201.4</ele><time>2026-05-01T15:53:08.692Z</time></trkpt><trkpt lat="45.7303684" lon="8.6194445"><ele>201.8</ele><time>2026-05-01T15:53:09.693Z</time></trkpt><trkpt lat="45.7304125" lon="8.6193427"><ele>202.20000000000002</ele><time>2026-05-01T15:53:10.693Z</time></trkpt><trkpt lat="45.7304653" lon="8.6192223"><ele>202.60000000000002</ele><time>2026-05-01T15:53:11.692Z</time></trkpt><trkpt lat="45.7305218" lon="8.6190953"><ele>203.0</ele><time>2026-05-01T15:53:12.693Z</time></trkpt><trkpt lat="45.7305796" lon="8.6189656"><ele>203.0</ele><time>2026-05-01T15:53:13.692Z</time></trkpt><trkpt lat="45.7306404" lon="8.6188282"><ele>203.0</ele><time>2026-05-01T15:53:14.693Z</time></trkpt><trkpt lat="45.7307052" lon="8.6186809"><ele>203.0</ele><time>2026-05-01T15:53:15.692Z</time></trkpt><trkpt lat="45.7307752" lon="8.6185216"><ele>203.0</ele><time>2026-05-01T15:53:16.692Z</time></trkpt><trkpt lat="45.7308491" lon="8.6183533"><ele>203.25</ele><time>2026-05-01T15:53:17.693Z</time></trkpt><trkpt lat="45.7309252" lon="8.6181789"><ele>203.5</ele><time>2026-05-01T15:53:18.693Z</time></trkpt><trkpt lat="45.7309985" lon="8.618011"><ele>203.75</ele><time>2026-05-01T15:53:19.693Z</time></trkpt><trkpt lat="45.7310788" lon="8.6178295"><ele>204.0</ele><time>2026-05-01T15:53:20.693Z</time></trkpt><trkpt lat="45.7311591" lon="8.6176515"><ele>204.5</ele><time>2026-05-01T15:53:21.692Z</time></trkpt><trkpt lat="45.7312418" lon="8.6174694"><ele>205.0</ele><time>2026-05-01T15:53:22.692Z</time></trkpt><trkpt lat="45.7313231" lon="8.6172902"><ele>205.5</ele><time>2026-05-01T15:53:23.693Z</time></trkpt><trkpt lat="45.7314026" lon="8.6171117"><ele>206.0</ele><time>2026-05-01T15:53:24.693Z</time></trkpt><trkpt lat="45.7314788" lon="8.6169401"><ele>206.0</ele><time>2026-05-01T15:53:25.692Z</time></trkpt><trkpt lat="45.7315511" lon="8.6167771"><ele>206.0</ele><time>2026-05-01T15:53:26.693Z</time></trkpt><trkpt lat="45.7316149" lon="8.6166325"><ele>206.0</ele><time>2026-05-01T15:53:27.693Z</time></trkpt><trkpt lat="45.7316719" lon="8.6165024"><ele>206.0</ele><time>2026-05-01T15:53:28.693Z</time></trkpt><trkpt lat="45.7317167" lon="8.616401"><ele>206.0</ele><time>2026-05-01T15:53:29.693Z</time></trkpt><trkpt lat="45.731753" lon="8.6163196"><ele>206.00000000000003</ele><time>2026-05-01T15:53:30.693Z</time></trkpt><trkpt lat="45.7318044" lon="8.6162314"><ele>206.0</ele><time>2026-05-01T15:53:32.692Z</time></trkpt><trkpt lat="45.7318556" lon="8.6163051"><ele>206.0</ele><time>2026-05-01T15:53:43.692Z</time></trkpt><trkpt lat="45.7318376" lon="8.6164106"><ele>206.0</ele><time>2026-05-01T15:53:45.693Z</time></trkpt><trkpt lat="45.731814" lon="8.6165348"><ele>206.00000000000003</ele><time>2026-05-01T15:53:47.693Z</time></trkpt><trkpt lat="45.731786" lon="8.6167069"><ele>206.0</ele><time>2026-05-01T15:53:49.693Z</time></trkpt><trkpt lat="45.731774" lon="8.6167956"><ele>206.0</ele><time>2026-05-01T15:53:50.692Z</time></trkpt><trkpt lat="45.7317555" lon="8.6169712"><ele>206.0</ele><time>2026-05-01T15:53:52.693Z</time></trkpt><trkpt lat="45.7317803" lon="8.6171161"><ele>206.0</ele><time>2026-05-01T15:53:54.692Z</time></trkpt><trkpt lat="45.7318597" lon="8.6172107"><ele>206.0</ele><time>2026-05-01T15:53:56.693Z</time></trkpt><trkpt lat="45.7319416" lon="8.6172899"><ele>206.0</ele><time>2026-05-01T15:53:58.692Z</time></trkpt><trkpt lat="45.7320008" lon="8.6173297"><ele>208.0</ele><time>2026-05-01T15:54:00.692Z</time></trkpt><trkpt lat="45.7320972" lon="8.6173187"><ele>210.0</ele><time>2026-05-01T15:54:03.693Z</time></trkpt><trkpt lat="45.7321866" lon="8.6173094"><ele>212.00000000000003</ele><time>2026-05-01T15:54:05.692Z</time></trkpt><trkpt lat="45.7322999" lon="8.6173045"><ele>214.0</ele><time>2026-05-01T15:54:07.692Z</time></trkpt><trkpt lat="45.7323651" lon="8.6173006"><ele>216.0</ele><time>2026-05-01T15:54:08.692Z</time></trkpt><trkpt lat="45.7324896" lon="8.6172979"><ele>216.0</ele><time>2026-05-01T15:54:10.693Z</time></trkpt><trkpt lat="45.7326118" lon="8.6173161"><ele>216.0</ele><time>2026-05-01T15:54:12.692Z</time></trkpt><trkpt lat="45.7327257" lon="8.6173511"><ele>216.0</ele><time>2026-05-01T15:54:14.693Z</time></trkpt><trkpt lat="45.7328393" lon="8.6173918"><ele>216.0</ele><time>2026-05-01T15:54:16.693Z</time></trkpt><trkpt lat="45.7329451" lon="8.6174298"><ele>215.60000000000002</ele><time>2026-05-01T15:54:18.693Z</time></trkpt><trkpt lat="45.733056" lon="8.617441"><ele>215.20000000000002</ele><time>2026-05-01T15:54:20.693Z</time></trkpt><trkpt lat="45.7331619" lon="8.6174231"><ele>214.79999999999998</ele><time>2026-05-01T15:54:22.692Z</time></trkpt><trkpt lat="45.7332613" lon="8.6174016"><ele>214.39999999999998</ele><time>2026-05-01T15:54:24.692Z</time></trkpt><trkpt lat="45.7333526" lon="8.6173833"><ele>214.0</ele><time>2026-05-01T15:54:26.693Z</time></trkpt><trkpt lat="45.7334634" lon="8.6173892"><ele>215.39999999999998</ele><time>2026-05-01T15:54:28.693Z</time></trkpt><trkpt lat="45.7335803" lon="8.6173989"><ele>216.79999999999998</ele><time>2026-05-01T15:54:30.693Z</time></trkpt><trkpt lat="45.7336932" lon="8.6174109"><ele>218.20000000000002</ele><time>2026-05-01T15:54:32.692Z</time></trkpt><trkpt lat="45.7337765" lon="8.6174324"><ele>219.60000000000002</ele><time>2026-05-01T15:54:34.693Z</time></trkpt><trkpt lat="45.7338443" lon="8.6174434"><ele>221.0</ele><time>2026-05-01T15:54:38.693Z</time></trkpt><trkpt lat="45.7338996" lon="8.6173505"><ele>221.00000000000003</ele><time>2026-05-01T15:54:41.693Z</time></trkpt><trkpt lat="45.7339289" lon="8.6172048"><ele>221.0</ele><time>2026-05-01T15:54:43.692Z</time></trkpt><trkpt lat="45.733947" lon="8.6171149"><ele>221.0</ele><time>2026-05-01T15:54:44.693Z</time></trkpt><trkpt lat="45.7339668" lon="8.6170151"><ele>221.0</ele><time>2026-05-01T15:54:45.693Z</time></trkpt><trkpt lat="45.7339899" lon="8.6169019"><ele>221.00000000000003</ele><time>2026-05-01T15:54:46.692Z</time></trkpt><trkpt lat="45.7340166" lon="8.6167691"><ele>221.0</ele><time>2026-05-01T15:54:47.692Z</time></trkpt><trkpt lat="45.7340431" lon="8.6166268"><ele>221.75</ele><time>2026-05-01T15:54:48.692Z</time></trkpt><trkpt lat="45.7340685" lon="8.6164797"><ele>222.5</ele><time>2026-05-01T15:54:49.692Z</time></trkpt><trkpt lat="45.7340913" lon="8.6163219"><ele>223.25</ele><time>2026-05-01T15:54:50.693Z</time></trkpt><trkpt lat="45.7341115" lon="8.6161446"><ele>224.0</ele><time>2026-05-01T15:54:51.693Z</time></trkpt><trkpt lat="45.7341243" lon="8.6159613"><ele>224.0</ele><time>2026-05-01T15:54:52.692Z</time></trkpt><trkpt lat="45.7341252" lon="8.6157579"><ele>224.0</ele><time>2026-05-01T15:54:53.692Z</time></trkpt><trkpt lat="45.734113" lon="8.6155535"><ele>224.0</ele><time>2026-05-01T15:54:54.692Z</time></trkpt><trkpt lat="45.7340899" lon="8.6153546"><ele>224.0</ele><time>2026-05-01T15:54:55.693Z</time></trkpt><trkpt lat="45.7340529" lon="8.6151411"><ele>224.66666666666669</ele><time>2026-05-01T15:54:56.693Z</time></trkpt><trkpt lat="45.7340077" lon="8.6149281"><ele>225.33333333333331</ele><time>2026-05-01T15:54:57.692Z</time></trkpt><trkpt lat="45.7339639" lon="8.6147123"><ele>226.0</ele><time>2026-05-01T15:54:58.692Z</time></trkpt><trkpt lat="45.7339286" lon="8.6144911"><ele>226.33333333333331</ele><time>2026-05-01T15:54:59.692Z</time></trkpt><trkpt lat="45.733908" lon="8.614271"><ele>226.66666666666669</ele><time>2026-05-01T15:55:00.693Z</time></trkpt><trkpt lat="45.7338992" lon="8.6140461"><ele>227.0</ele><time>2026-05-01T15:55:01.692Z</time></trkpt><trkpt lat="45.7339011" lon="8.6138172"><ele>226.66666666666669</ele><time>2026-05-01T15:55:02.692Z</time></trkpt><trkpt lat="45.7339146" lon="8.6135917"><ele>226.33333333333331</ele><time>2026-05-01T15:55:03.693Z</time></trkpt><trkpt lat="45.7339408" lon="8.6133553"><ele>226.0</ele><time>2026-05-01T15:55:04.692Z</time></trkpt><trkpt lat="45.7339781" lon="8.6131289"><ele>226.0</ele><time>2026-05-01T15:55:05.692Z</time></trkpt><trkpt lat="45.7340286" lon="8.6129088"><ele>226.0</ele><time>2026-05-01T15:55:06.693Z</time></trkpt><trkpt lat="45.7340938" lon="8.6126886"><ele>226.0</ele><time>2026-05-01T15:55:07.692Z</time></trkpt><trkpt lat="45.7341649" lon="8.6124918"><ele>224.75</ele><time>2026-05-01T15:55:08.693Z</time></trkpt><trkpt lat="45.7342425" lon="8.6123127"><ele>223.5</ele><time>2026-05-01T15:55:09.692Z</time></trkpt><trkpt lat="45.734317" lon="8.6121575"><ele>222.25</ele><time>2026-05-01T15:55:10.693Z</time></trkpt><trkpt lat="45.7343792" lon="8.6120293"><ele>221.0</ele><time>2026-05-01T15:55:11.692Z</time></trkpt><trkpt lat="45.7344289" lon="8.6119157"><ele>220.20000000000002</ele><time>2026-05-01T15:55:12.692Z</time></trkpt><trkpt lat="45.7344551" lon="8.6118185"><ele>219.40000000000003</ele><time>2026-05-01T15:55:13.693Z</time></trkpt><trkpt lat="45.734434" lon="8.6116669"><ele>218.6</ele><time>2026-05-01T15:55:15.693Z</time></trkpt><trkpt lat="45.7343575" lon="8.6115665"><ele>217.8</ele><time>2026-05-01T15:55:17.692Z</time></trkpt><trkpt lat="45.7343154" lon="8.61143"><ele>217.0</ele><time>2026-05-01T15:55:19.692Z</time></trkpt><trkpt lat="45.7343334" lon="8.6113415"><ele>217.0</ele><time>2026-05-01T15:55:20.693Z</time></trkpt><trkpt lat="45.7343688" lon="8.6112479"><ele>217.0</ele><time>2026-05-01T15:55:21.693Z</time></trkpt><trkpt lat="45.7344125" lon="8.6111535"><ele>217.0</ele><time>2026-05-01T15:55:22.693Z</time></trkpt><trkpt lat="45.7344636" lon="8.6110471"><ele>217.0</ele><time>2026-05-01T15:55:23.692Z</time></trkpt><trkpt lat="45.7345204" lon="8.6109268"><ele>217.0</ele><time>2026-05-01T15:55:24.692Z</time></trkpt><trkpt lat="45.7345838" lon="8.610793"><ele>216.25</ele><time>2026-05-01T15:55:25.692Z</time></trkpt><trkpt lat="45.7346511" lon="8.6106492"><ele>215.5</ele><time>2026-05-01T15:55:26.693Z</time></trkpt><trkpt lat="45.7347159" lon="8.6105082"><ele>214.75</ele><time>2026-05-01T15:55:27.692Z</time></trkpt><trkpt lat="45.7347886" lon="8.6103516"><ele>214.0</ele><time>2026-05-01T15:55:28.693Z</time></trkpt><trkpt lat="45.7348597" lon="8.6102005"><ele>214.0</ele><time>2026-05-01T15:55:29.692Z</time></trkpt><trkpt lat="45.7349297" lon="8.6100531"><ele>214.0</ele><time>2026-05-01T15:55:30.692Z</time></trkpt><trkpt lat="45.7349985" lon="8.6099111"><ele>214.0</ele><time>2026-05-01T15:55:31.693Z</time></trkpt><trkpt lat="45.7350622" lon="8.609781"><ele>214.0</ele><time>2026-05-01T15:55:32.693Z</time></trkpt><trkpt lat="45.7351203" lon="8.6096662"><ele>213.99999999999997</ele><time>2026-05-01T15:55:33.693Z</time></trkpt><trkpt lat="45.7351753" lon="8.6095595"><ele>214.0</ele><time>2026-05-01T15:55:34.692Z</time></trkpt><trkpt lat="45.7352265" lon="8.6094642"><ele>214.0</ele><time>2026-05-01T15:55:35.692Z</time></trkpt><trkpt lat="45.7352832" lon="8.609368"><ele>214.0</ele><time>2026-05-01T15:55:36.692Z</time></trkpt><trkpt lat="45.7353427" lon="8.6092756"><ele>213.99999999999997</ele><time>2026-05-01T15:55:37.693Z</time></trkpt><trkpt lat="45.735409" lon="8.6091824"><ele>214.0</ele><time>2026-05-01T15:55:38.693Z</time></trkpt><trkpt lat="45.7354834" lon="8.6090906"><ele>214.6</ele><time>2026-05-01T15:55:39.692Z</time></trkpt><trkpt lat="45.735567" lon="8.6089978"><ele>215.2</ele><time>2026-05-01T15:55:40.692Z</time></trkpt><trkpt lat="45.7356524" lon="8.6089075"><ele>215.79999999999998</ele><time>2026-05-01T15:55:41.693Z</time></trkpt><trkpt lat="45.7357231" lon="8.6088386"><ele>216.39999999999998</ele><time>2026-05-01T15:55:42.692Z</time></trkpt><trkpt lat="45.7358125" lon="8.6087686"><ele>217.0</ele><time>2026-05-01T15:55:44.693Z</time></trkpt><trkpt lat="45.7358803" lon="8.6086938"><ele>217.33333333333331</ele><time>2026-05-01T15:55:46.693Z</time></trkpt><trkpt lat="45.7359293" lon="8.6086313"><ele>217.66666666666666</ele><time>2026-05-01T15:55:47.692Z</time></trkpt><trkpt lat="45.7359831" lon="8.6085689"><ele>218.0</ele><time>2026-05-01T15:55:48.692Z</time></trkpt><trkpt lat="45.7360471" lon="8.6085023"><ele>218.33333333333331</ele><time>2026-05-01T15:55:49.692Z</time></trkpt><trkpt lat="45.7361236" lon="8.6084245"><ele>218.66666666666666</ele><time>2026-05-01T15:55:50.693Z</time></trkpt><trkpt lat="45.7362138" lon="8.6083301"><ele>219.0</ele><time>2026-05-01T15:55:51.693Z</time></trkpt><trkpt lat="45.7363056" lon="8.6082295"><ele>219.0</ele><time>2026-05-01T15:55:52.692Z</time></trkpt><trkpt lat="45.7364018" lon="8.6081173"><ele>219.0</ele><time>2026-05-01T15:55:53.693Z</time></trkpt><trkpt lat="45.7365057" lon="8.6079918"><ele>219.0</ele><time>2026-05-01T15:55:54.692Z</time></trkpt><trkpt lat="45.736624" lon="8.607848"><ele>219.0</ele><time>2026-05-01T15:55:55.693Z</time></trkpt><trkpt lat="45.7367414" lon="8.6077072"><ele>220.0</ele><time>2026-05-01T15:55:56.692Z</time></trkpt><trkpt lat="45.7368638" lon="8.6075621"><ele>221.0</ele><time>2026-05-01T15:55:57.692Z</time></trkpt><trkpt lat="45.7369887" lon="8.6074158"><ele>222.0</ele><time>2026-05-01T15:55:58.693Z</time></trkpt><trkpt lat="45.73712" lon="8.6072619"><ele>222.0</ele><time>2026-05-01T15:55:59.692Z</time></trkpt><trkpt lat="45.7372608" lon="8.6070971"><ele>222.0</ele><time>2026-05-01T15:56:00.693Z</time></trkpt><trkpt lat="45.7373962" lon="8.6069383"><ele>222.0</ele><time>2026-05-01T15:56:01.693Z</time></trkpt><trkpt lat="45.7375362" lon="8.6067698"><ele>221.33333333333331</ele><time>2026-05-01T15:56:02.692Z</time></trkpt><trkpt lat="45.7376753" lon="8.6066011"><ele>220.66666666666666</ele><time>2026-05-01T15:56:03.693Z</time></trkpt><trkpt lat="45.7378063" lon="8.6064394"><ele>220.0</ele><time>2026-05-01T15:56:04.693Z</time></trkpt><trkpt lat="45.737928" lon="8.6062868"><ele>218.25</ele><time>2026-05-01T15:56:05.693Z</time></trkpt><trkpt lat="45.7380403" lon="8.6061437"><ele>216.5</ele><time>2026-05-01T15:56:06.693Z</time></trkpt><trkpt lat="45.7381425" lon="8.6060133"><ele>214.75</ele><time>2026-05-01T15:56:07.693Z</time></trkpt><trkpt lat="45.7382324" lon="8.6058969"><ele>213.0</ele><time>2026-05-01T15:56:08.692Z</time></trkpt><trkpt lat="45.7383051" lon="8.6058018"><ele>213.0</ele><time>2026-05-01T15:56:09.693Z</time></trkpt><trkpt lat="45.7383593" lon="8.6057323"><ele>213.0</ele><time>2026-05-01T15:56:10.692Z</time></trkpt><trkpt lat="45.7384218" lon="8.6056842"><ele>213.0</ele><time>2026-05-01T15:56:12.692Z</time></trkpt><trkpt lat="45.7384755" lon="8.6057424"><ele>213.0</ele><time>2026-05-01T15:56:16.692Z</time></trkpt><trkpt lat="45.738516" lon="8.6058481"><ele>213.0</ele><time>2026-05-01T15:57:42.693Z</time></trkpt><trkpt lat="45.7385628" lon="8.6059766"><ele>213.0</ele><time>2026-05-01T15:57:45.692Z</time></trkpt><trkpt lat="45.7386031" lon="8.6060926"><ele>215.0</ele><time>2026-05-01T15:57:47.692Z</time></trkpt><trkpt lat="45.7386498" lon="8.6062213"><ele>217.0</ele><time>2026-05-01T15:57:49.693Z</time></trkpt><trkpt lat="45.7387034" lon="8.6063605"><ele>219.0</ele><time>2026-05-01T15:57:51.692Z</time></trkpt><trkpt lat="45.7387644" lon="8.6065079"><ele>221.0</ele><time>2026-05-01T15:57:53.693Z</time></trkpt><trkpt lat="45.7388208" lon="8.6066518"><ele>223.0</ele><time>2026-05-01T15:57:55.692Z</time></trkpt><trkpt lat="45.7388701" lon="8.6067747"><ele>223.0</ele><time>2026-05-01T15:57:57.692Z</time></trkpt><trkpt lat="45.7389358" lon="8.6068184"><ele>223.0</ele><time>2026-05-01T15:57:59.693Z</time></trkpt><trkpt lat="45.7390238" lon="8.6067963"><ele>223.0</ele><time>2026-05-01T15:58:01.693Z</time></trkpt><trkpt lat="45.7391224" lon="8.6067614"><ele>223.0</ele><time>2026-05-01T15:58:03.693Z</time></trkpt><trkpt lat="45.739225" lon="8.6067287"><ele>223.0</ele><time>2026-05-01T15:58:05.692Z</time></trkpt><trkpt lat="45.7393353" lon="8.6066885"><ele>225.4</ele><time>2026-05-01T15:58:07.693Z</time></trkpt><trkpt lat="45.7394439" lon="8.6066409"><ele>227.8</ele><time>2026-05-01T15:58:09.692Z</time></trkpt><trkpt lat="45.7395362" lon="8.6065938"><ele>230.2</ele><time>2026-05-01T15:58:11.692Z</time></trkpt><trkpt lat="45.7396472" lon="8.6065254"><ele>232.6</ele><time>2026-05-01T15:58:13.692Z</time></trkpt><trkpt lat="45.7397094" lon="8.6064854"><ele>235.0</ele><time>2026-05-01T15:58:14.692Z</time></trkpt><trkpt lat="45.7397693" lon="8.6064413"><ele>235.0</ele><time>2026-05-01T15:58:15.692Z</time></trkpt><trkpt lat="45.73983" lon="8.6063903"><ele>235.0</ele><time>2026-05-01T15:58:16.693Z</time></trkpt><trkpt lat="45.7398829" lon="8.6063399"><ele>235.0</ele><time>2026-05-01T15:58:17.693Z</time></trkpt><trkpt lat="45.7399832" lon="8.6062406"><ele>235.0</ele><time>2026-05-01T15:58:19.693Z</time></trkpt><trkpt lat="45.7400858" lon="8.6061553"><ele>235.0</ele><time>2026-05-01T15:58:21.693Z</time></trkpt><trkpt lat="45.7401992" lon="8.6060651"><ele>234.33333333333331</ele><time>2026-05-01T15:58:23.693Z</time></trkpt><trkpt lat="45.7402603" lon="8.6060133"><ele>233.66666666666666</ele><time>2026-05-01T15:58:24.693Z</time></trkpt><trkpt lat="45.7403198" lon="8.6059642"><ele>233.0</ele><time>2026-05-01T15:58:25.693Z</time></trkpt><trkpt lat="45.7403776" lon="8.6059195"><ele>232.33333333333331</ele><time>2026-05-01T15:58:26.693Z</time></trkpt><trkpt lat="45.7404417" lon="8.6058795"><ele>231.66666666666666</ele><time>2026-05-01T15:58:27.693Z</time></trkpt><trkpt lat="45.7405583" lon="8.6058358"><ele>231.0</ele><time>2026-05-01T15:58:29.693Z</time></trkpt><trkpt lat="45.7406775" lon="8.6057844"><ele>231.0</ele><time>2026-05-01T15:58:31.692Z</time></trkpt><trkpt lat="45.7407412" lon="8.6057375"><ele>231.0</ele><time>2026-05-01T15:58:32.692Z</time></trkpt><trkpt lat="45.740802" lon="8.6056787"><ele>231.0</ele><time>2026-05-01T15:58:33.693Z</time></trkpt><trkpt lat="45.7408552" lon="8.6056169"><ele>231.0</ele><time>2026-05-01T15:58:34.693Z</time></trkpt><trkpt lat="45.7409082" lon="8.6055546"><ele>231.0</ele><time>2026-05-01T15:58:35.693Z</time></trkpt><trkpt lat="45.7409612" lon="8.6055009"><ele>231.0</ele><time>2026-05-01T15:58:36.692Z</time></trkpt><trkpt lat="45.7410135" lon="8.6054471"><ele>231.0</ele><time>2026-05-01T15:58:37.692Z</time></trkpt><trkpt lat="45.7410666" lon="8.6053869"><ele>231.71428571428572</ele><time>2026-05-01T15:58:38.693Z</time></trkpt><trkpt lat="45.7411208" lon="8.6053245"><ele>232.42857142857144</ele><time>2026-05-01T15:58:39.692Z</time></trkpt><trkpt lat="45.7411762" lon="8.6052551"><ele>233.14285714285714</ele><time>2026-05-01T15:58:40.693Z</time></trkpt><trkpt lat="45.7412291" lon="8.6051866"><ele>233.85714285714286</ele><time>2026-05-01T15:58:41.692Z</time></trkpt><trkpt lat="45.7412825" lon="8.6051144"><ele>234.57142857142858</ele><time>2026-05-01T15:58:42.692Z</time></trkpt><trkpt lat="45.7413398" lon="8.6050384"><ele>235.28571428571428</ele><time>2026-05-01T15:58:43.692Z</time></trkpt><trkpt lat="45.7413956" lon="8.604964"><ele>236.0</ele><time>2026-05-01T15:58:44.693Z</time></trkpt><trkpt lat="45.7414512" lon="8.6048906"><ele>236.00000000000003</ele><time>2026-05-01T15:58:45.693Z</time></trkpt><trkpt lat="45.7415086" lon="8.6048155"><ele>236.0</ele><time>2026-05-01T15:58:46.692Z</time></trkpt><trkpt lat="45.7415658" lon="8.6047393"><ele>236.0</ele><time>2026-05-01T15:58:47.693Z</time></trkpt><trkpt lat="45.7416275" lon="8.6046626"><ele>236.0</ele><time>2026-05-01T15:58:48.692Z</time></trkpt><trkpt lat="45.7416858" lon="8.6045937"><ele>236.00000000000003</ele><time>2026-05-01T15:58:49.692Z</time></trkpt><trkpt lat="45.741746" lon="8.6045221"><ele>236.0</ele><time>2026-05-01T15:58:50.692Z</time></trkpt><trkpt lat="45.7418096" lon="8.6044497"><ele>235.83333333333334</ele><time>2026-05-01T15:58:51.692Z</time></trkpt><trkpt lat="45.7418715" lon="8.6043782"><ele>235.66666666666669</ele><time>2026-05-01T15:58:52.693Z</time></trkpt><trkpt lat="45.7419306" lon="8.6043104"><ele>235.5</ele><time>2026-05-01T15:58:53.693Z</time></trkpt><trkpt lat="45.7419916" lon="8.6042408"><ele>235.33333333333331</ele><time>2026-05-01T15:58:54.693Z</time></trkpt><trkpt lat="45.742053" lon="8.6041715"><ele>235.16666666666666</ele><time>2026-05-01T15:58:55.693Z</time></trkpt><trkpt lat="45.7421145" lon="8.604101"><ele>235.0</ele><time>2026-05-01T15:58:56.693Z</time></trkpt><trkpt lat="45.7421721" lon="8.6040356"><ele>235.0</ele><time>2026-05-01T15:58:57.692Z</time></trkpt><trkpt lat="45.7422299" lon="8.6039662"><ele>234.99999999999997</ele><time>2026-05-01T15:58:58.693Z</time></trkpt><trkpt lat="45.7422905" lon="8.6038945"><ele>235.0</ele><time>2026-05-01T15:58:59.692Z</time></trkpt><trkpt lat="45.7423475" lon="8.6038248"><ele>235.0</ele><time>2026-05-01T15:59:00.692Z</time></trkpt><trkpt lat="45.7424012" lon="8.6037599"><ele>234.99999999999997</ele><time>2026-05-01T15:59:01.692Z</time></trkpt><trkpt lat="45.7424579" lon="8.6036944"><ele>235.0</ele><time>2026-05-01T15:59:02.693Z</time></trkpt><trkpt lat="45.7425144" lon="8.603631"><ele>235.0</ele><time>2026-05-01T15:59:03.692Z</time></trkpt><trkpt lat="45.7425714" lon="8.6035651"><ele>234.28571428571428</ele><time>2026-05-01T15:59:04.692Z</time></trkpt><trkpt lat="45.7426245" lon="8.6035001"><ele>233.57142857142856</ele><time>2026-05-01T15:59:05.692Z</time></trkpt><trkpt lat="45.7426744" lon="8.603434"><ele>232.85714285714283</ele><time>2026-05-01T15:59:06.693Z</time></trkpt><trkpt lat="45.7427253" lon="8.6033636"><ele>232.1428571428571</ele><time>2026-05-01T15:59:07.693Z</time></trkpt><trkpt lat="45.7427717" lon="8.6032952"><ele>231.42857142857142</ele><time>2026-05-01T15:59:08.693Z</time></trkpt><trkpt lat="45.7428166" lon="8.603228"><ele>230.71428571428567</ele><time>2026-05-01T15:59:09.693Z</time></trkpt><trkpt lat="45.7428599" lon="8.603157"><ele>229.99999999999997</ele><time>2026-05-01T15:59:10.693Z</time></trkpt><trkpt lat="45.7429356" lon="8.6030291"><ele>230.00000000000003</ele><time>2026-05-01T15:59:12.693Z</time></trkpt><trkpt lat="45.742986" lon="8.6029422"><ele>230.0</ele><time>2026-05-01T15:59:14.692Z</time></trkpt><trkpt lat="45.7430414" lon="8.6028807"><ele>230.0</ele><time>2026-05-01T15:59:18.693Z</time></trkpt><trkpt lat="45.7431234" lon="8.6028964"><ele>230.0</ele><time>2026-05-01T15:59:21.692Z</time></trkpt><trkpt lat="45.743202" lon="8.6028858"><ele>230.00000000000003</ele><time>2026-05-01T15:59:23.692Z</time></trkpt><trkpt lat="45.7433103" lon="8.6028266"><ele>230.0</ele><time>2026-05-01T15:59:25.693Z</time></trkpt><trkpt lat="45.7434253" lon="8.6027572"><ele>228.83333333333334</ele><time>2026-05-01T15:59:27.693Z</time></trkpt><trkpt lat="45.7434897" lon="8.602722"><ele>227.66666666666669</ele><time>2026-05-01T15:59:28.692Z</time></trkpt><trkpt lat="45.7435522" lon="8.6026894"><ele>226.5</ele><time>2026-05-01T15:59:29.693Z</time></trkpt><trkpt lat="45.7436518" lon="8.602646"><ele>225.33333333333331</ele><time>2026-05-01T15:59:31.692Z</time></trkpt><trkpt lat="45.7437222" lon="8.6026097"><ele>224.16666666666666</ele><time>2026-05-01T15:59:33.692Z</time></trkpt><trkpt lat="45.7438005" lon="8.6025497"><ele>223.0</ele><time>2026-05-01T15:59:35.693Z</time></trkpt><trkpt lat="45.7438849" lon="8.6024553"><ele>223.0</ele><time>2026-05-01T15:59:37.693Z</time></trkpt><trkpt lat="45.7439682" lon="8.6023493"><ele>223.0</ele><time>2026-05-01T15:59:39.692Z</time></trkpt><trkpt lat="45.7440468" lon="8.6022443"><ele>223.0</ele><time>2026-05-01T15:59:41.692Z</time></trkpt><trkpt lat="45.7441239" lon="8.6021447"><ele>223.0</ele><time>2026-05-01T15:59:43.692Z</time></trkpt><trkpt lat="45.7442093" lon="8.6020649"><ele>223.0</ele><time>2026-05-01T15:59:45.693Z</time></trkpt><trkpt lat="45.7443034" lon="8.6020017"><ele>222.2</ele><time>2026-05-01T15:59:47.692Z</time></trkpt><trkpt lat="45.7444073" lon="8.6019449"><ele>221.4</ele><time>2026-05-01T15:59:49.693Z</time></trkpt><trkpt lat="45.744513" lon="8.6018894"><ele>220.59999999999997</ele><time>2026-05-01T15:59:51.693Z</time></trkpt><trkpt lat="45.7446188" lon="8.6018296"><ele>219.79999999999998</ele><time>2026-05-01T15:59:53.692Z</time></trkpt><trkpt lat="45.7447159" lon="8.6017615"><ele>219.0</ele><time>2026-05-01T15:59:55.692Z</time></trkpt><trkpt lat="45.7448168" lon="8.6016932"><ele>219.0</ele><time>2026-05-01T15:59:57.693Z</time></trkpt><trkpt lat="45.7449134" lon="8.6016301"><ele>218.99999999999997</ele><time>2026-05-01T15:59:59.692Z</time></trkpt><trkpt lat="45.7450177" lon="8.6015769"><ele>218.99999999999997</ele><time>2026-05-01T16:00:01.693Z</time></trkpt><trkpt lat="45.7451265" lon="8.6015418"><ele>219.0</ele><time>2026-05-01T16:00:03.692Z</time></trkpt><trkpt lat="45.745198" lon="8.6015225"><ele>219.0</ele><time>2026-05-01T16:00:05.692Z</time></trkpt><trkpt lat="45.7452672" lon="8.6014954"><ele>220.6</ele><time>2026-05-01T16:00:08.692Z</time></trkpt><trkpt lat="45.7453362" lon="8.6014801"><ele>222.2</ele><time>2026-05-01T16:00:10.692Z</time></trkpt><trkpt lat="45.7454317" lon="8.6014735"><ele>223.79999999999998</ele><time>2026-05-01T16:00:12.693Z</time></trkpt><trkpt lat="45.7455332" lon="8.6014737"><ele>225.39999999999998</ele><time>2026-05-01T16:00:14.692Z</time></trkpt><trkpt lat="45.7456295" lon="8.6014732"><ele>227.0</ele><time>2026-05-01T16:00:16.693Z</time></trkpt><trkpt lat="45.7457255" lon="8.6014692"><ele>227.0</ele><time>2026-05-01T16:00:18.693Z</time></trkpt><trkpt lat="45.7458222" lon="8.6014566"><ele>227.0</ele><time>2026-05-01T16:00:20.693Z</time></trkpt><trkpt lat="45.7459103" lon="8.6014281"><ele>227.0</ele><time>2026-05-01T16:00:22.693Z</time></trkpt><trkpt lat="45.7459993" lon="8.6013932"><ele>227.0</ele><time>2026-05-01T16:00:24.692Z</time></trkpt><trkpt lat="45.7460863" lon="8.6013584"><ele>227.0</ele><time>2026-05-01T16:00:26.692Z</time></trkpt><trkpt lat="45.7461792" lon="8.6013238"><ele>227.16666666666669</ele><time>2026-05-01T16:00:28.692Z</time></trkpt><trkpt lat="45.7462674" lon="8.6012963"><ele>227.33333333333334</ele><time>2026-05-01T16:00:30.692Z</time></trkpt><trkpt lat="45.7463505" lon="8.6012664"><ele>227.5</ele><time>2026-05-01T16:00:32.693Z</time></trkpt><trkpt lat="45.7464289" lon="8.6012593"><ele>227.66666666666669</ele><time>2026-05-01T16:00:34.692Z</time></trkpt><trkpt lat="45.7465072" lon="8.6012751"><ele>227.83333333333334</ele><time>2026-05-01T16:00:36.693Z</time></trkpt><trkpt lat="45.7465889" lon="8.6012942"><ele>228.0</ele><time>2026-05-01T16:00:38.693Z</time></trkpt><trkpt lat="45.7466716" lon="8.6013144"><ele>228.0</ele><time>2026-05-01T16:00:40.693Z</time></trkpt><trkpt lat="45.7467504" lon="8.6013461"><ele>228.0</ele><time>2026-05-01T16:00:42.693Z</time></trkpt><trkpt lat="45.7468354" lon="8.6013852"><ele>228.0</ele><time>2026-05-01T16:00:44.692Z</time></trkpt><trkpt lat="45.746925" lon="8.6014187"><ele>228.0</ele><time>2026-05-01T16:00:46.692Z</time></trkpt><trkpt lat="45.7470117" lon="8.6014468"><ele>228.0</ele><time>2026-05-01T16:00:48.693Z</time></trkpt><trkpt lat="45.747086" lon="8.6014595"><ele>228.0</ele><time>2026-05-01T16:00:50.692Z</time></trkpt><trkpt lat="45.7471628" lon="8.6014528"><ele>230.0</ele><time>2026-05-01T16:00:52.692Z</time></trkpt><trkpt lat="45.7472456" lon="8.6014238"><ele>232.0</ele><time>2026-05-01T16:00:54.692Z</time></trkpt><trkpt lat="45.7473337" lon="8.6014032"><ele>234.0</ele><time>2026-05-01T16:00:56.693Z</time></trkpt><trkpt lat="45.7474194" lon="8.6013963"><ele>236.0</ele><time>2026-05-01T16:00:58.693Z</time></trkpt><trkpt lat="45.7475001" lon="8.6013857"><ele>238.0</ele><time>2026-05-01T16:01:00.692Z</time></trkpt><trkpt lat="45.7475709" lon="8.6013548"><ele>240.0</ele><time>2026-05-01T16:01:02.693Z</time></trkpt><trkpt lat="45.7476424" lon="8.6013259"><ele>240.0</ele><time>2026-05-01T16:01:04.693Z</time></trkpt><trkpt lat="45.747708" lon="8.6013101"><ele>240.0</ele><time>2026-05-01T16:01:06.693Z</time></trkpt><trkpt lat="45.7477785" lon="8.6012935"><ele>240.0</ele><time>2026-05-01T16:01:08.692Z</time></trkpt><trkpt lat="45.7478512" lon="8.6012785"><ele>240.0</ele><time>2026-05-01T16:01:10.693Z</time></trkpt><trkpt lat="45.747931" lon="8.6012686"><ele>240.0</ele><time>2026-05-01T16:01:12.693Z</time></trkpt><trkpt lat="45.7480065" lon="8.6012713"><ele>240.0</ele><time>2026-05-01T16:01:14.692Z</time></trkpt><trkpt lat="45.7480825" lon="8.6012954"><ele>240.0</ele><time>2026-05-01T16:01:16.693Z</time></trkpt><trkpt lat="45.7481575" lon="8.6013378"><ele>240.5</ele><time>2026-05-01T16:01:18.693Z</time></trkpt><trkpt lat="45.748225" lon="8.6013951"><ele>241.0</ele><time>2026-05-01T16:01:20.692Z</time></trkpt><trkpt lat="45.748273" lon="8.6014786"><ele>241.5</ele><time>2026-05-01T16:01:23.693Z</time></trkpt><trkpt lat="45.7483412" lon="8.601506"><ele>242.0</ele><time>2026-05-01T16:01:29.693Z</time></trkpt><trkpt lat="45.7483939" lon="8.6014498"><ele>242.5</ele><time>2026-05-01T16:01:37.693Z</time></trkpt><trkpt lat="45.748473" lon="8.6013948"><ele>243.0</ele><time>2026-05-01T16:01:41.693Z</time></trkpt><trkpt lat="45.7485438" lon="8.6013719"><ele>243.16666666666666</ele><time>2026-05-01T16:01:43.692Z</time></trkpt><trkpt lat="45.7486232" lon="8.6013465"><ele>243.33333333333331</ele><time>2026-05-01T16:01:45.693Z</time></trkpt><trkpt lat="45.7486988" lon="8.6013237"><ele>243.5</ele><time>2026-05-01T16:01:47.692Z</time></trkpt><trkpt lat="45.7487761" lon="8.6012995"><ele>243.66666666666666</ele><time>2026-05-01T16:01:49.693Z</time></trkpt><trkpt lat="45.748851" lon="8.6012734"><ele>243.83333333333331</ele><time>2026-05-01T16:01:51.693Z</time></trkpt><trkpt lat="45.7489271" lon="8.6012467"><ele>244.0</ele><time>2026-05-01T16:01:53.693Z</time></trkpt><trkpt lat="45.7490044" lon="8.6012254"><ele>243.99999999999997</ele><time>2026-05-01T16:01:55.692Z</time></trkpt><trkpt lat="45.7490833" lon="8.601201"><ele>244.0</ele><time>2026-05-01T16:01:57.693Z</time></trkpt><trkpt lat="45.7491643" lon="8.6011776"><ele>244.0</ele><time>2026-05-01T16:01:59.692Z</time></trkpt><trkpt lat="45.7492515" lon="8.6011505"><ele>244.0</ele><time>2026-05-01T16:02:01.692Z</time></trkpt><trkpt lat="45.7493371" lon="8.6011271"><ele>243.99999999999997</ele><time>2026-05-01T16:02:03.692Z</time></trkpt><trkpt lat="45.7494165" lon="8.6010949"><ele>244.0</ele><time>2026-05-01T16:02:05.693Z</time></trkpt><trkpt lat="45.7494945" lon="8.6010668"><ele>241.66666666666666</ele><time>2026-05-01T16:02:07.693Z</time></trkpt><trkpt lat="45.7495796" lon="8.6010358"><ele>239.33333333333331</ele><time>2026-05-01T16:02:09.693Z</time></trkpt><trkpt lat="45.7496632" lon="8.6010049"><ele>237.0</ele><time>2026-05-01T16:02:11.693Z</time></trkpt><trkpt lat="45.7497451" lon="8.6009735"><ele>234.66666666666669</ele><time>2026-05-01T16:02:13.692Z</time></trkpt><trkpt lat="45.7498228" lon="8.6009394"><ele>232.33333333333334</ele><time>2026-05-01T16:02:15.692Z</time></trkpt><trkpt lat="45.7499041" lon="8.6009012"><ele>230.0</ele><time>2026-05-01T16:02:17.692Z</time></trkpt><trkpt lat="45.7499791" lon="8.6008511"><ele>229.99999999999997</ele><time>2026-05-01T16:02:19.692Z</time></trkpt><trkpt lat="45.7500501" lon="8.6008013"><ele>230.0</ele><time>2026-05-01T16:02:21.692Z</time></trkpt><trkpt lat="45.7501145" lon="8.6007751"><ele>229.99999999999997</ele><time>2026-05-01T16:02:23.692Z</time></trkpt><trkpt lat="45.750177" lon="8.6007864"><ele>229.99999999999997</ele><time>2026-05-01T16:02:25.692Z</time></trkpt><trkpt lat="45.7502489" lon="8.6007906"><ele>230.0</ele><time>2026-05-01T16:02:28.693Z</time></trkpt><trkpt lat="45.7502897" lon="8.6007131"><ele>229.99999999999997</ele><time>2026-05-01T16:02:32.692Z</time></trkpt><trkpt lat="45.7503062" lon="8.6006125"><ele>229.99999999999997</ele><time>2026-05-01T16:02:35.692Z</time></trkpt><trkpt lat="45.7503432" lon="8.6005173"><ele>231.00000000000003</ele><time>2026-05-01T16:02:38.693Z</time></trkpt><trkpt lat="45.750393" lon="8.6004454"><ele>232.0</ele><time>2026-05-01T16:02:45.693Z</time></trkpt><trkpt lat="45.7504626" lon="8.6003556"><ele>233.0</ele><time>2026-05-01T16:02:48.692Z</time></trkpt><trkpt lat="45.7505341" lon="8.6002899"><ele>234.0</ele><time>2026-05-01T16:02:50.693Z</time></trkpt><trkpt lat="45.7506021" lon="8.600237"><ele>235.00000000000003</ele><time>2026-05-01T16:02:52.692Z</time></trkpt><trkpt lat="45.7506452" lon="8.600169"><ele>236.0</ele><time>2026-05-01T16:02:56.693Z</time></trkpt><trkpt lat="45.7505977" lon="8.6001041"><ele>234.00000000000003</ele><time>2026-05-01T16:03:00.693Z</time></trkpt><trkpt lat="45.7505162" lon="8.6001571"><ele>232.0</ele><time>2026-05-01T16:03:04.693Z</time></trkpt><trkpt lat="45.7504269" lon="8.6002161"><ele>230.0</ele><time>2026-05-01T16:03:07.693Z</time></trkpt><trkpt lat="45.7503597" lon="8.6002412"><ele>228.0</ele><time>2026-05-01T16:03:09.693Z</time></trkpt><trkpt lat="45.7502958" lon="8.6002181"><ele>226.00000000000003</ele><time>2026-05-01T16:03:11.693Z</time></trkpt><trkpt lat="45.7502461" lon="8.6001404"><ele>224.0</ele><time>2026-05-01T16:03:13.692Z</time></trkpt><trkpt lat="45.7501975" lon="8.600028"><ele>222.6</ele><time>2026-05-01T16:03:15.692Z</time></trkpt><trkpt lat="45.7501416" lon="8.5999167"><ele>221.2</ele><time>2026-05-01T16:03:17.693Z</time></trkpt><trkpt lat="45.7500852" lon="8.5998036"><ele>219.79999999999998</ele><time>2026-05-01T16:03:19.692Z</time></trkpt><trkpt lat="45.7500446" lon="8.5996885"><ele>218.39999999999998</ele><time>2026-05-01T16:03:21.693Z</time></trkpt><trkpt lat="45.7500276" lon="8.5995564"><ele>217.0</ele><time>2026-05-01T16:03:23.693Z</time></trkpt><trkpt lat="45.7500039" lon="8.5994221"><ele>215.83333333333331</ele><time>2026-05-01T16:03:25.692Z</time></trkpt><trkpt lat="45.7499817" lon="8.5993297"><ele>214.66666666666666</ele><time>2026-05-01T16:03:27.693Z</time></trkpt><trkpt lat="45.7499591" lon="8.5992129"><ele>213.5</ele><time>2026-05-01T16:03:31.693Z</time></trkpt><trkpt lat="45.7499361" lon="8.5991075"><ele>212.33333333333331</ele><time>2026-05-01T16:03:33.692Z</time></trkpt><trkpt lat="45.7498895" lon="8.5989573"><ele>211.16666666666666</ele><time>2026-05-01T16:03:35.692Z</time></trkpt><trkpt lat="45.7498558" lon="8.5988664"><ele>210.0</ele><time>2026-05-01T16:03:36.692Z</time></trkpt><trkpt lat="45.7498195" lon="8.5987755"><ele>210.0</ele><time>2026-05-01T16:03:37.692Z</time></trkpt><trkpt lat="45.7497829" lon="8.598682"><ele>210.0</ele><time>2026-05-01T16:03:38.692Z</time></trkpt><trkpt lat="45.7497448" lon="8.59858"><ele>210.0</ele><time>2026-05-01T16:03:39.692Z</time></trkpt><trkpt lat="45.7497101" lon="8.5984778"><ele>210.0</ele><time>2026-05-01T16:03:40.692Z</time></trkpt><trkpt lat="45.7496806" lon="8.5983724"><ele>210.0</ele><time>2026-05-01T16:03:41.693Z</time></trkpt><trkpt lat="45.7496558" lon="8.5982625"><ele>210.0</ele><time>2026-05-01T16:03:42.692Z</time></trkpt><trkpt lat="45.7496335" lon="8.5981531"><ele>209.83333333333334</ele><time>2026-05-01T16:03:43.693Z</time></trkpt><trkpt lat="45.7496101" lon="8.5980372"><ele>209.66666666666669</ele><time>2026-05-01T16:03:44.692Z</time></trkpt><trkpt lat="45.7495874" lon="8.5979236"><ele>209.5</ele><time>2026-05-01T16:03:45.692Z</time></trkpt><trkpt lat="45.7495654" lon="8.5978104"><ele>209.33333333333334</ele><time>2026-05-01T16:03:46.692Z</time></trkpt><trkpt lat="45.7495454" lon="8.5976964"><ele>209.16666666666669</ele><time>2026-05-01T16:03:47.692Z</time></trkpt><trkpt lat="45.7495311" lon="8.5975855"><ele>209.0</ele><time>2026-05-01T16:03:48.692Z</time></trkpt><trkpt lat="45.749525" lon="8.5974766"><ele>208.83333333333334</ele><time>2026-05-01T16:03:49.693Z</time></trkpt><trkpt lat="45.7495247" lon="8.5973743"><ele>208.66666666666669</ele><time>2026-05-01T16:03:50.692Z</time></trkpt><trkpt lat="45.749527" lon="8.5972147"><ele>208.5</ele><time>2026-05-01T16:03:52.693Z</time></trkpt><trkpt lat="45.7495267" lon="8.5971116"><ele>208.33333333333331</ele><time>2026-05-01T16:03:55.693Z</time></trkpt><trkpt lat="45.749572" lon="8.5970135"><ele>208.16666666666666</ele><time>2026-05-01T16:04:03.693Z</time></trkpt><trkpt lat="45.7496432" lon="8.5969792"><ele>208.0</ele><time>2026-05-01T16:04:05.693Z</time></trkpt><trkpt lat="45.7497517" lon="8.5969301"><ele>207.85714285714286</ele><time>2026-05-01T16:04:07.693Z</time></trkpt><trkpt lat="45.7498185" lon="8.5969047"><ele>207.71428571428572</ele><time>2026-05-01T16:04:08.692Z</time></trkpt><trkpt lat="45.7498882" lon="8.596883"><ele>207.57142857142858</ele><time>2026-05-01T16:04:09.693Z</time></trkpt><trkpt lat="45.7499608" lon="8.5968667"><ele>207.42857142857144</ele><time>2026-05-01T16:04:10.692Z</time></trkpt><trkpt lat="45.7500381" lon="8.5968565"><ele>207.28571428571428</ele><time>2026-05-01T16:04:11.692Z</time></trkpt><trkpt lat="45.7501046" lon="8.596853"><ele>207.14285714285717</ele><time>2026-05-01T16:04:12.692Z</time></trkpt><trkpt lat="45.7501902" lon="8.5968527"><ele>207.0</ele><time>2026-05-01T16:04:14.693Z</time></trkpt><trkpt lat="45.7502705" lon="8.5968256"><ele>206.6</ele><time>2026-05-01T16:04:19.693Z</time></trkpt><trkpt lat="45.7503512" lon="8.596717"><ele>206.2</ele><time>2026-05-01T16:04:22.693Z</time></trkpt><trkpt lat="45.7504449" lon="8.5965905"><ele>205.8</ele><time>2026-05-01T16:04:24.692Z</time></trkpt><trkpt lat="45.7504954" lon="8.5965226"><ele>205.4</ele><time>2026-05-01T16:04:25.693Z</time></trkpt><trkpt lat="45.7505405" lon="8.5964582"><ele>205.0</ele><time>2026-05-01T16:04:26.692Z</time></trkpt><trkpt lat="45.750618" lon="8.5963615"><ele>205.0</ele><time>2026-05-01T16:04:28.693Z</time></trkpt><trkpt lat="45.750679" lon="8.596296"><ele>205.0</ele><time>2026-05-01T16:04:30.692Z</time></trkpt><trkpt lat="45.750749" lon="8.5962438"><ele>205.0</ele><time>2026-05-01T16:04:32.692Z</time></trkpt><trkpt lat="45.7508503" lon="8.596185"><ele>205.0</ele><time>2026-05-01T16:04:34.693Z</time></trkpt><trkpt lat="45.7509731" lon="8.5961356"><ele>205.0</ele><time>2026-05-01T16:04:36.693Z</time></trkpt><trkpt lat="45.7510449" lon="8.5961129"><ele>204.66666666666666</ele><time>2026-05-01T16:04:37.692Z</time></trkpt><trkpt lat="45.7511232" lon="8.5960905"><ele>204.33333333333331</ele><time>2026-05-01T16:04:38.693Z</time></trkpt><trkpt lat="45.7512039" lon="8.5960665"><ele>204.0</ele><time>2026-05-01T16:04:39.692Z</time></trkpt><trkpt lat="45.7512863" lon="8.5960416"><ele>203.66666666666669</ele><time>2026-05-01T16:04:40.692Z</time></trkpt><trkpt lat="45.751368" lon="8.5960129"><ele>203.33333333333334</ele><time>2026-05-01T16:04:41.693Z</time></trkpt><trkpt lat="45.7514501" lon="8.5959877"><ele>203.0</ele><time>2026-05-01T16:04:42.693Z</time></trkpt><trkpt lat="45.7515325" lon="8.5959697"><ele>203.00000000000003</ele><time>2026-05-01T16:04:43.692Z</time></trkpt><trkpt lat="45.7516117" lon="8.5959545"><ele>203.0</ele><time>2026-05-01T16:04:44.692Z</time></trkpt><trkpt lat="45.7516937" lon="8.5959368"><ele>203.0</ele><time>2026-05-01T16:04:45.693Z</time></trkpt><trkpt lat="45.7517742" lon="8.5959196"><ele>203.0</ele><time>2026-05-01T16:04:46.693Z</time></trkpt><trkpt lat="45.7518504" lon="8.5959021"><ele>203.00000000000003</ele><time>2026-05-01T16:04:47.692Z</time></trkpt><trkpt lat="45.751933" lon="8.5958864"><ele>203.0</ele><time>2026-05-01T16:04:48.692Z</time></trkpt><trkpt lat="45.7520115" lon="8.5958702"><ele>203.2</ele><time>2026-05-01T16:04:49.692Z</time></trkpt><trkpt lat="45.7520878" lon="8.5958482"><ele>203.4</ele><time>2026-05-01T16:04:50.693Z</time></trkpt><trkpt lat="45.7521601" lon="8.59582"><ele>203.6</ele><time>2026-05-01T16:04:51.693Z</time></trkpt><trkpt lat="45.752227" lon="8.5957926"><ele>203.79999999999998</ele><time>2026-05-01T16:04:52.692Z</time></trkpt><trkpt lat="45.7523348" lon="8.5957461"><ele>204.0</ele><time>2026-05-01T16:04:54.693Z</time></trkpt><trkpt lat="45.7524485" lon="8.5956945"><ele>204.0</ele><time>2026-05-01T16:04:56.693Z</time></trkpt><trkpt lat="45.7525666" lon="8.5956447"><ele>204.0</ele><time>2026-05-01T16:04:58.692Z</time></trkpt><trkpt lat="45.7526831" lon="8.5955985"><ele>204.0</ele><time>2026-05-01T16:05:00.693Z</time></trkpt><trkpt lat="45.7527992" lon="8.5955665"><ele>204.0</ele><time>2026-05-01T16:05:02.693Z</time></trkpt><trkpt lat="45.7529114" lon="8.5955335"><ele>204.16666666666666</ele><time>2026-05-01T16:05:04.693Z</time></trkpt><trkpt lat="45.7529973" lon="8.5955089"><ele>204.33333333333331</ele><time>2026-05-01T16:05:06.693Z</time></trkpt><trkpt lat="45.7530665" lon="8.5955008"><ele>204.5</ele><time>2026-05-01T16:05:37.693Z</time></trkpt><trkpt lat="45.7529868" lon="8.5954933"><ele>204.66666666666666</ele><time>2026-05-01T16:05:57.692Z</time></trkpt><trkpt lat="45.7529252" lon="8.59553"><ele>204.83333333333331</ele><time>2026-05-01T16:05:59.692Z</time></trkpt><trkpt lat="45.7528374" lon="8.5955693"><ele>205.0</ele><time>2026-05-01T16:06:01.692Z</time></trkpt><trkpt lat="45.7527193" lon="8.595599"><ele>204.83333333333331</ele><time>2026-05-01T16:06:03.693Z</time></trkpt><trkpt lat="45.7525973" lon="8.5956386"><ele>204.66666666666666</ele><time>2026-05-01T16:06:05.693Z</time></trkpt><trkpt lat="45.7525358" lon="8.5956595"><ele>204.5</ele><time>2026-05-01T16:06:06.692Z</time></trkpt><trkpt lat="45.7524724" lon="8.5956862"><ele>204.33333333333331</ele><time>2026-05-01T16:06:07.693Z</time></trkpt><trkpt lat="45.7524085" lon="8.5957141"><ele>204.16666666666666</ele><time>2026-05-01T16:06:08.693Z</time></trkpt><trkpt lat="45.7523441" lon="8.5957434"><ele>204.0</ele><time>2026-05-01T16:06:09.692Z</time></trkpt><trkpt lat="45.752279" lon="8.5957742"><ele>204.0</ele><time>2026-05-01T16:06:10.692Z</time></trkpt><trkpt lat="45.7522119" lon="8.5958005"><ele>204.0</ele><time>2026-05-01T16:06:11.692Z</time></trkpt><trkpt lat="45.7521494" lon="8.5958272"><ele>204.0</ele><time>2026-05-01T16:06:12.692Z</time></trkpt><trkpt lat="45.7520882" lon="8.5958503"><ele>204.0</ele><time>2026-05-01T16:06:13.693Z</time></trkpt><trkpt lat="45.7519702" lon="8.5958869"><ele>204.0</ele><time>2026-05-01T16:06:15.692Z</time></trkpt><trkpt lat="45.7518624" lon="8.5959071"><ele>204.0</ele><time>2026-05-01T16:06:17.693Z</time></trkpt><trkpt lat="45.7517638" lon="8.5959261"><ele>203.83333333333334</ele><time>2026-05-01T16:06:19.693Z</time></trkpt><trkpt lat="45.7516785" lon="8.5959444"><ele>203.66666666666669</ele><time>2026-05-01T16:06:21.693Z</time></trkpt><trkpt lat="45.7516033" lon="8.5959621"><ele>203.5</ele><time>2026-05-01T16:06:23.692Z</time></trkpt><trkpt lat="45.75154" lon="8.5959758"><ele>203.33333333333334</ele><time>2026-05-01T16:06:25.692Z</time></trkpt><trkpt lat="45.7514572" lon="8.5959988"><ele>203.16666666666669</ele><time>2026-05-01T16:06:28.693Z</time></trkpt><trkpt lat="45.7513865" lon="8.5960244"><ele>203.0</ele><time>2026-05-01T16:06:30.693Z</time></trkpt><trkpt lat="45.7512929" lon="8.596051"><ele>203.0</ele><time>2026-05-01T16:06:32.692Z</time></trkpt><trkpt lat="45.7511874" lon="8.5960817"><ele>203.0</ele><time>2026-05-01T16:06:34.693Z</time></trkpt><trkpt lat="45.7510717" lon="8.5961157"><ele>203.0</ele><time>2026-05-01T16:06:36.692Z</time></trkpt><trkpt lat="45.7509562" lon="8.596152"><ele>203.0</ele><time>2026-05-01T16:06:38.692Z</time></trkpt><trkpt lat="45.7508411" lon="8.5962012"><ele>203.5</ele><time>2026-05-01T16:06:40.692Z</time></trkpt><trkpt lat="45.7507321" lon="8.5962714"><ele>204.0</ele><time>2026-05-01T16:06:42.693Z</time></trkpt><trkpt lat="45.7506308" lon="8.5963601"><ele>204.5</ele><time>2026-05-01T16:06:44.692Z</time></trkpt><trkpt lat="45.7505397" lon="8.5964653"><ele>205.0</ele><time>2026-05-01T16:06:46.693Z</time></trkpt><trkpt lat="45.750453" lon="8.5965851"><ele>204.99999999999997</ele><time>2026-05-01T16:06:48.692Z</time></trkpt><trkpt lat="45.7503753" lon="8.5966924"><ele>205.0</ele><time>2026-05-01T16:06:50.693Z</time></trkpt><trkpt lat="45.7503317" lon="8.5967617"><ele>205.0</ele><time>2026-05-01T16:06:52.693Z</time></trkpt><trkpt lat="45.7503327" lon="8.5968627"><ele>205.0</ele><time>2026-05-01T16:07:11.692Z</time></trkpt><trkpt lat="45.7503979" lon="8.5969114"><ele>204.99999999999997</ele><time>2026-05-01T16:07:13.692Z</time></trkpt><trkpt lat="45.750512" lon="8.5969649"><ele>205.0</ele><time>2026-05-01T16:07:15.693Z</time></trkpt><trkpt lat="45.75058" lon="8.5969963"><ele>205.4</ele><time>2026-05-01T16:07:16.692Z</time></trkpt><trkpt lat="45.7506566" lon="8.5970319"><ele>205.8</ele><time>2026-05-01T16:07:17.692Z</time></trkpt><trkpt lat="45.7507483" lon="8.5970791"><ele>206.2</ele><time>2026-05-01T16:07:18.693Z</time></trkpt><trkpt lat="45.750851" lon="8.5971278"><ele>206.6</ele><time>2026-05-01T16:07:19.692Z</time></trkpt><trkpt lat="45.7509624" lon="8.5971803"><ele>207.0</ele><time>2026-05-01T16:07:20.692Z</time></trkpt><trkpt lat="45.7510795" lon="8.5972353"><ele>207.0</ele><time>2026-05-01T16:07:21.693Z</time></trkpt><trkpt lat="45.7512022" lon="8.5972939"><ele>207.0</ele><time>2026-05-01T16:07:22.692Z</time></trkpt><trkpt lat="45.7513369" lon="8.5973583"><ele>207.0</ele><time>2026-05-01T16:07:23.692Z</time></trkpt><trkpt lat="45.7514819" lon="8.5974262"><ele>207.0</ele><time>2026-05-01T16:07:24.693Z</time></trkpt><trkpt lat="45.751627" lon="8.5974943"><ele>207.0</ele><time>2026-05-01T16:07:25.692Z</time></trkpt><trkpt lat="45.7517757" lon="8.5975651"><ele>207.0</ele><time>2026-05-01T16:07:26.693Z</time></trkpt><trkpt lat="45.751922" lon="8.5976351"><ele>207.0</ele><time>2026-05-01T16:07:27.693Z</time></trkpt><trkpt lat="45.7520821" lon="8.5977094"><ele>206.66666666666669</ele><time>2026-05-01T16:07:28.693Z</time></trkpt><trkpt lat="45.7522442" lon="8.5977843"><ele>206.33333333333334</ele><time>2026-05-01T16:07:29.692Z</time></trkpt><trkpt lat="45.7524083" lon="8.5978605"><ele>206.0</ele><time>2026-05-01T16:07:30.692Z</time></trkpt><trkpt lat="45.7525816" lon="8.5979415"><ele>207.33333333333334</ele><time>2026-05-01T16:07:31.692Z</time></trkpt><trkpt lat="45.7527499" lon="8.5980198"><ele>208.66666666666669</ele><time>2026-05-01T16:07:32.693Z</time></trkpt><trkpt lat="45.7529217" lon="8.5981004"><ele>210.0</ele><time>2026-05-01T16:07:33.692Z</time></trkpt><trkpt lat="45.7530914" lon="8.5981805"><ele>210.0</ele><time>2026-05-01T16:07:34.693Z</time></trkpt><trkpt lat="45.7532586" lon="8.5982598"><ele>210.0</ele><time>2026-05-01T16:07:35.692Z</time></trkpt><trkpt lat="45.7534244" lon="8.5983377"><ele>210.0</ele><time>2026-05-01T16:07:36.692Z</time></trkpt><trkpt lat="45.7535855" lon="8.5984143"><ele>209.66666666666669</ele><time>2026-05-01T16:07:37.693Z</time></trkpt><trkpt lat="45.7537443" lon="8.598488"><ele>209.33333333333334</ele><time>2026-05-01T16:07:38.692Z</time></trkpt><trkpt lat="45.7539023" lon="8.5985622"><ele>209.0</ele><time>2026-05-01T16:07:39.693Z</time></trkpt><trkpt lat="45.7540561" lon="8.5986354"><ele>210.33333333333334</ele><time>2026-05-01T16:07:40.693Z</time></trkpt><trkpt lat="45.7542075" lon="8.598708"><ele>211.66666666666669</ele><time>2026-05-01T16:07:41.693Z</time></trkpt><trkpt lat="45.7543567" lon="8.59878"><ele>213.0</ele><time>2026-05-01T16:07:42.693Z</time></trkpt><trkpt lat="45.7545009" lon="8.598848"><ele>213.0</ele><time>2026-05-01T16:07:43.693Z</time></trkpt><trkpt lat="45.7546508" lon="8.5989183"><ele>213.0</ele><time>2026-05-01T16:07:44.692Z</time></trkpt><trkpt lat="45.7547936" lon="8.5989863"><ele>213.0</ele><time>2026-05-01T16:07:45.692Z</time></trkpt><trkpt lat="45.7549354" lon="8.5990539"><ele>213.0</ele><time>2026-05-01T16:07:46.693Z</time></trkpt><trkpt lat="45.7550738" lon="8.5991194"><ele>213.0</ele><time>2026-05-01T16:07:47.693Z</time></trkpt><trkpt lat="45.7552096" lon="8.5991843"><ele>213.0</ele><time>2026-05-01T16:07:48.693Z</time></trkpt><trkpt lat="45.7553422" lon="8.599247"><ele>213.0</ele><time>2026-05-01T16:07:49.692Z</time></trkpt><trkpt lat="45.7554756" lon="8.5993097"><ele>212.75</ele><time>2026-05-01T16:07:50.693Z</time></trkpt><trkpt lat="45.7556076" lon="8.5993705"><ele>212.5</ele><time>2026-05-01T16:07:51.692Z</time></trkpt><trkpt lat="45.7557438" lon="8.5994323"><ele>212.25</ele><time>2026-05-01T16:07:52.693Z</time></trkpt><trkpt lat="45.7558739" lon="8.5994886"><ele>212.0</ele><time>2026-05-01T16:07:53.693Z</time></trkpt><trkpt lat="45.7560014" lon="8.5995412"><ele>212.0</ele><time>2026-05-01T16:07:54.692Z</time></trkpt><trkpt lat="45.7561302" lon="8.5995898"><ele>212.0</ele><time>2026-05-01T16:07:55.693Z</time></trkpt><trkpt lat="45.756247" lon="8.5996289"><ele>212.0</ele><time>2026-05-01T16:07:56.692Z</time></trkpt><trkpt lat="45.7563511" lon="8.5996599"><ele>212.0</ele><time>2026-05-01T16:07:57.693Z</time></trkpt><trkpt lat="45.7564528" lon="8.5996858"><ele>212.0</ele><time>2026-05-01T16:07:58.692Z</time></trkpt><trkpt lat="45.7565534" lon="8.5997078"><ele>212.0</ele><time>2026-05-01T16:07:59.693Z</time></trkpt><trkpt lat="45.7566559" lon="8.599729"><ele>212.0</ele><time>2026-05-01T16:08:00.692Z</time></trkpt><trkpt lat="45.7567554" lon="8.5997466"><ele>212.0</ele><time>2026-05-01T16:08:01.693Z</time></trkpt><trkpt lat="45.7568544" lon="8.5997617"><ele>212.0</ele><time>2026-05-01T16:08:02.692Z</time></trkpt><trkpt lat="45.7569487" lon="8.5997734"><ele>211.66666666666669</ele><time>2026-05-01T16:08:03.692Z</time></trkpt><trkpt lat="45.7570211" lon="8.5997815"><ele>211.33333333333334</ele><time>2026-05-01T16:08:04.693Z</time></trkpt><trkpt lat="45.7570968" lon="8.5997883"><ele>211.0</ele><time>2026-05-01T16:08:06.692Z</time></trkpt><trkpt lat="45.7571473" lon="8.5996918"><ele>210.66666666666669</ele><time>2026-05-01T16:08:12.693Z</time></trkpt><trkpt lat="45.7571606" lon="8.599549"><ele>210.33333333333334</ele><time>2026-05-01T16:08:14.693Z</time></trkpt><trkpt lat="45.7571723" lon="8.599454"><ele>210.0</ele><time>2026-05-01T16:08:15.693Z</time></trkpt><trkpt lat="45.7571853" lon="8.5993408"><ele>209.0</ele><time>2026-05-01T16:08:16.693Z</time></trkpt><trkpt lat="45.7571994" lon="8.5992069"><ele>208.0</ele><time>2026-05-01T16:08:17.692Z</time></trkpt><trkpt lat="45.7572161" lon="8.5990483"><ele>207.0</ele><time>2026-05-01T16:08:18.693Z</time></trkpt><trkpt lat="45.757233" lon="8.5988825"><ele>206.0</ele><time>2026-05-01T16:08:19.692Z</time></trkpt><trkpt lat="45.7572514" lon="8.5987024"><ele>205.75</ele><time>2026-05-01T16:08:20.693Z</time></trkpt><trkpt lat="45.7572692" lon="8.5985192"><ele>205.5</ele><time>2026-05-01T16:08:21.693Z</time></trkpt><trkpt lat="45.7572889" lon="8.598321"><ele>205.25</ele><time>2026-05-01T16:08:22.692Z</time></trkpt><trkpt lat="45.757308" lon="8.5981233"><ele>205.0</ele><time>2026-05-01T16:08:23.692Z</time></trkpt><trkpt lat="45.7573277" lon="8.597921"><ele>205.25</ele><time>2026-05-01T16:08:24.693Z</time></trkpt><trkpt lat="45.7573468" lon="8.5977361"><ele>205.5</ele><time>2026-05-01T16:08:25.693Z</time></trkpt><trkpt lat="45.7573673" lon="8.597552"><ele>205.75</ele><time>2026-05-01T16:08:26.693Z</time></trkpt><trkpt lat="45.7573873" lon="8.5973762"><ele>206.0</ele><time>2026-05-01T16:08:27.692Z</time></trkpt><trkpt lat="45.7574055" lon="8.597219"><ele>206.00000000000003</ele><time>2026-05-01T16:08:28.693Z</time></trkpt><trkpt lat="45.7574212" lon="8.5970801"><ele>206.0</ele><time>2026-05-01T16:08:29.693Z</time></trkpt><trkpt lat="45.7574346" lon="8.5969488"><ele>206.0</ele><time>2026-05-01T16:08:30.692Z</time></trkpt><trkpt lat="45.7574373" lon="8.5968292"><ele>206.0</ele><time>2026-05-01T16:08:31.693Z</time></trkpt><trkpt lat="45.757424" lon="8.5967126"><ele>206.00000000000003</ele><time>2026-05-01T16:08:32.693Z</time></trkpt><trkpt lat="45.7573958" lon="8.59661"><ele>206.0</ele><time>2026-05-01T16:08:33.692Z</time></trkpt><trkpt lat="45.7573473" lon="8.5965144"><ele>206.20000000000002</ele><time>2026-05-01T16:08:34.692Z</time></trkpt><trkpt lat="45.7572819" lon="8.5964301"><ele>206.4</ele><time>2026-05-01T16:08:35.692Z</time></trkpt><trkpt lat="45.7572072" lon="8.5963558"><ele>206.6</ele><time>2026-05-01T16:08:36.693Z</time></trkpt><trkpt lat="45.7571284" lon="8.5962823"><ele>206.8</ele><time>2026-05-01T16:08:37.692Z</time></trkpt><trkpt lat="45.757042" lon="8.5962056"><ele>207.0</ele><time>2026-05-01T16:08:38.693Z</time></trkpt><trkpt lat="45.7569531" lon="8.5961288"><ele>206.6</ele><time>2026-05-01T16:08:39.692Z</time></trkpt><trkpt lat="45.7568604" lon="8.5960472"><ele>206.2</ele><time>2026-05-01T16:08:40.693Z</time></trkpt><trkpt lat="45.7567724" lon="8.5959703"><ele>205.8</ele><time>2026-05-01T16:08:41.692Z</time></trkpt><trkpt lat="45.7566827" lon="8.5958925"><ele>205.4</ele><time>2026-05-01T16:08:42.692Z</time></trkpt><trkpt lat="45.7565919" lon="8.5958121"><ele>205.0</ele><time>2026-05-01T16:08:43.693Z</time></trkpt><trkpt lat="45.7565055" lon="8.5957366"><ele>204.99999999999997</ele><time>2026-05-01T16:08:44.693Z</time></trkpt><trkpt lat="45.7564229" lon="8.5956661"><ele>205.0</ele><time>2026-05-01T16:08:45.693Z</time></trkpt><trkpt lat="45.7563416" lon="8.5955976"><ele>205.0</ele><time>2026-05-01T16:08:46.693Z</time></trkpt><trkpt lat="45.7562656" lon="8.5955349"><ele>205.0</ele><time>2026-05-01T16:08:47.693Z</time></trkpt><trkpt lat="45.7561972" lon="8.5954772"><ele>204.99999999999997</ele><time>2026-05-01T16:08:48.693Z</time></trkpt><trkpt lat="45.7561389" lon="8.5954278"><ele>205.0</ele><time>2026-05-01T16:08:49.692Z</time></trkpt><trkpt lat="45.7560524" lon="8.595351"><ele>204.99999999999997</ele><time>2026-05-01T16:08:51.693Z</time></trkpt><trkpt lat="45.7559991" lon="8.5952916"><ele>205.0</ele><time>2026-05-01T16:08:54.693Z</time></trkpt><trkpt lat="45.7559278" lon="8.5952559"><ele>205.0</ele><time>2026-05-01T16:09:15.692Z</time></trkpt><trkpt lat="45.7559948" lon="8.5953064"><ele>205.0</ele><time>2026-05-01T16:09:37.692Z</time></trkpt><trkpt lat="45.7560561" lon="8.5953608"><ele>204.99999999999997</ele><time>2026-05-01T16:09:39.692Z</time></trkpt><trkpt lat="45.7561482" lon="8.5954415"><ele>205.0</ele><time>2026-05-01T16:09:41.692Z</time></trkpt><trkpt lat="45.7562076" lon="8.5954924"><ele>205.0</ele><time>2026-05-01T16:09:42.692Z</time></trkpt><trkpt lat="45.7562722" lon="8.595545"><ele>205.0</ele><time>2026-05-01T16:09:43.692Z</time></trkpt><trkpt lat="45.7563462" lon="8.595605"><ele>205.0</ele><time>2026-05-01T16:09:44.693Z</time></trkpt><trkpt lat="45.7564307" lon="8.5956747"><ele>205.0</ele><time>2026-05-01T16:09:45.693Z</time></trkpt><trkpt lat="45.7565187" lon="8.5957492"><ele>205.0</ele><time>2026-05-01T16:09:46.693Z</time></trkpt><trkpt lat="45.7566125" lon="8.5958306"><ele>205.0</ele><time>2026-05-01T16:09:47.693Z</time></trkpt><trkpt lat="45.7567077" lon="8.5959135"><ele>205.0</ele><time>2026-05-01T16:09:48.693Z</time></trkpt><trkpt lat="45.756806" lon="8.5960006"><ele>205.0</ele><time>2026-05-01T16:09:49.693Z</time></trkpt><trkpt lat="45.7569037" lon="8.5960879"><ele>205.0</ele><time>2026-05-01T16:09:50.693Z</time></trkpt><trkpt lat="45.7569986" lon="8.5961725"><ele>205.4</ele><time>2026-05-01T16:09:51.693Z</time></trkpt><trkpt lat="45.7570936" lon="8.5962592"><ele>205.8</ele><time>2026-05-01T16:09:52.693Z</time></trkpt><trkpt lat="45.7571776" lon="8.5963363"><ele>206.2</ele><time>2026-05-01T16:09:53.693Z</time></trkpt><trkpt lat="45.757256" lon="8.596413"><ele>206.6</ele><time>2026-05-01T16:09:54.693Z</time></trkpt><trkpt lat="45.7573188" lon="8.5964864"><ele>207.0</ele><time>2026-05-01T16:09:55.692Z</time></trkpt><trkpt lat="45.7573644" lon="8.5965502"><ele>207.0</ele><time>2026-05-01T16:09:56.692Z</time></trkpt><trkpt lat="45.7574179" lon="8.5966295"><ele>207.0</ele><time>2026-05-01T16:09:58.692Z</time></trkpt><trkpt lat="45.7574818" lon="8.5966035"><ele>207.0</ele><time>2026-05-01T16:10:02.692Z</time></trkpt><trkpt lat="45.757494" lon="8.5964969"><ele>207.0</ele><time>2026-05-01T16:10:05.692Z</time></trkpt><trkpt lat="45.7575059" lon="8.5963733"><ele>207.0</ele><time>2026-05-01T16:10:07.692Z</time></trkpt><trkpt lat="45.7575274" lon="8.596199"><ele>207.0</ele><time>2026-05-01T16:10:09.692Z</time></trkpt><trkpt lat="45.7575386" lon="8.5961079"><ele>207.0</ele><time>2026-05-01T16:10:10.693Z</time></trkpt><trkpt lat="45.7575507" lon="8.5960171"><ele>207.0</ele><time>2026-05-01T16:10:11.693Z</time></trkpt><trkpt lat="45.7575657" lon="8.5958534"><ele>207.0</ele><time>2026-05-01T16:10:13.692Z</time></trkpt><trkpt lat="45.7575787" lon="8.5957144"><ele>207.0</ele><time>2026-05-01T16:10:15.692Z</time></trkpt><trkpt lat="45.7575941" lon="8.5956001"><ele>207.0</ele><time>2026-05-01T16:10:17.692Z</time></trkpt><trkpt lat="45.757648" lon="8.5955369"><ele>207.0</ele><time>2026-05-01T16:10:19.693Z</time></trkpt><trkpt lat="45.757731" lon="8.5955315"><ele>206.66666666666666</ele><time>2026-05-01T16:10:21.692Z</time></trkpt><trkpt lat="45.7578245" lon="8.595551"><ele>206.33333333333331</ele><time>2026-05-01T16:10:23.692Z</time></trkpt><trkpt lat="45.7579231" lon="8.5955746"><ele>206.0</ele><time>2026-05-01T16:10:25.692Z</time></trkpt><trkpt lat="45.7580152" lon="8.5956023"><ele>205.66666666666666</ele><time>2026-05-01T16:10:27.692Z</time></trkpt><trkpt lat="45.7580928" lon="8.5955974"><ele>205.33333333333331</ele><time>2026-05-01T16:10:29.692Z</time></trkpt><trkpt lat="45.7581334" lon="8.5955068"><ele>205.0</ele><time>2026-05-01T16:10:31.692Z</time></trkpt><trkpt lat="45.7581441" lon="8.5953779"><ele>204.8</ele><time>2026-05-01T16:10:33.692Z</time></trkpt><trkpt lat="45.7581464" lon="8.5952447"><ele>204.6</ele><time>2026-05-01T16:10:35.693Z</time></trkpt><trkpt lat="45.7581495" lon="8.5951257"><ele>204.39999999999998</ele><time>2026-05-01T16:10:37.692Z</time></trkpt><trkpt lat="45.75816" lon="8.5949953"><ele>204.2</ele><time>2026-05-01T16:10:39.692Z</time></trkpt><trkpt lat="45.7581709" lon="8.5948574"><ele>204.0</ele><time>2026-05-01T16:10:41.692Z</time></trkpt><trkpt lat="45.7581793" lon="8.5947202"><ele>204.0</ele><time>2026-05-01T16:10:43.692Z</time></trkpt><trkpt lat="45.7581891" lon="8.59458"><ele>204.0</ele><time>2026-05-01T16:10:45.692Z</time></trkpt><trkpt lat="45.7581938" lon="8.5944436"><ele>204.0</ele><time>2026-05-01T16:10:47.692Z</time></trkpt><trkpt lat="45.7581981" lon="8.5943041"><ele>204.0</ele><time>2026-05-01T16:10:49.692Z</time></trkpt><trkpt lat="45.7581948" lon="8.5941673"><ele>204.0</ele><time>2026-05-01T16:10:51.692Z</time></trkpt><trkpt lat="45.7581898" lon="8.5940314"><ele>204.16666666666666</ele><time>2026-05-01T16:10:53.693Z</time></trkpt><trkpt lat="45.7581862" lon="8.593904"><ele>204.33333333333331</ele><time>2026-05-01T16:10:55.692Z</time></trkpt><trkpt lat="45.7581834" lon="8.5937832"><ele>204.5</ele><time>2026-05-01T16:10:57.692Z</time></trkpt><trkpt lat="45.7581757" lon="8.5936626"><ele>204.66666666666666</ele><time>2026-05-01T16:10:59.693Z</time></trkpt><trkpt lat="45.7581657" lon="8.5935413"><ele>204.83333333333331</ele><time>2026-05-01T16:11:01.692Z</time></trkpt><trkpt lat="45.758153" lon="8.5934171"><ele>205.0</ele><time>2026-05-01T16:11:03.693Z</time></trkpt><trkpt lat="45.7581372" lon="8.5932847"><ele>204.6</ele><time>2026-05-01T16:11:05.693Z</time></trkpt><trkpt lat="45.7581189" lon="8.5931542"><ele>204.2</ele><time>2026-05-01T16:11:07.693Z</time></trkpt><trkpt lat="45.7580995" lon="8.5930211"><ele>203.8</ele><time>2026-05-01T16:11:09.692Z</time></trkpt><trkpt lat="45.7580717" lon="8.5928847"><ele>203.4</ele><time>2026-05-01T16:11:11.692Z</time></trkpt><trkpt lat="45.7580453" lon="8.5927506"><ele>203.0</ele><time>2026-05-01T16:11:13.693Z</time></trkpt><trkpt lat="45.7580192" lon="8.5926175"><ele>202.60000000000002</ele><time>2026-05-01T16:11:15.693Z</time></trkpt><trkpt lat="45.757994" lon="8.5924892"><ele>202.20000000000002</ele><time>2026-05-01T16:11:17.692Z</time></trkpt><trkpt lat="45.7579718" lon="8.5923624"><ele>201.8</ele><time>2026-05-01T16:11:19.692Z</time></trkpt><trkpt lat="45.7579446" lon="8.5922321"><ele>201.4</ele><time>2026-05-01T16:11:21.693Z</time></trkpt><trkpt lat="45.7579174" lon="8.592102"><ele>201.0</ele><time>2026-05-01T16:11:23.693Z</time></trkpt><trkpt lat="45.7578936" lon="8.591975"><ele>201.0</ele><time>2026-05-01T16:11:25.692Z</time></trkpt><trkpt lat="45.7578692" lon="8.5918478"><ele>201.0</ele><time>2026-05-01T16:11:27.693Z</time></trkpt><trkpt lat="45.7578432" lon="8.5917136"><ele>201.0</ele><time>2026-05-01T16:11:29.692Z</time></trkpt><trkpt lat="45.7578186" lon="8.5915778"><ele>201.0</ele><time>2026-05-01T16:11:31.692Z</time></trkpt><trkpt lat="45.7577929" lon="8.5914439"><ele>201.0</ele><time>2026-05-01T16:11:33.693Z</time></trkpt><trkpt lat="45.7577672" lon="8.5913216"><ele>201.0</ele><time>2026-05-01T16:11:35.692Z</time></trkpt><trkpt lat="45.7577461" lon="8.5912289"><ele>201.0</ele><time>2026-05-01T16:11:38.692Z</time></trkpt><trkpt lat="45.7577271" lon="8.5911171"><ele>201.0</ele><time>2026-05-01T16:11:44.693Z</time></trkpt><trkpt lat="45.7577325" lon="8.5910229"><ele>201.0</ele><time>2026-05-01T16:11:48.693Z</time></trkpt><trkpt lat="45.7577924" lon="8.5909659"><ele>201.0</ele><time>2026-05-01T16:11:53.692Z</time></trkpt><trkpt lat="45.7578578" lon="8.5909426"><ele>201.0</ele><time>2026-05-01T16:11:58.692Z</time></trkpt><trkpt lat="45.7579265" lon="8.590925"><ele>201.0</ele><time>2026-05-01T16:12:01.693Z</time></trkpt><trkpt lat="45.7580135" lon="8.5909066"><ele>201.16666666666666</ele><time>2026-05-01T16:12:04.693Z</time></trkpt><trkpt lat="45.7580895" lon="8.590898"><ele>201.33333333333331</ele><time>2026-05-01T16:12:06.692Z</time></trkpt><trkpt lat="45.7581743" lon="8.5908944"><ele>201.5</ele><time>2026-05-01T16:12:08.692Z</time></trkpt><trkpt lat="45.7582599" lon="8.590911"><ele>201.66666666666666</ele><time>2026-05-01T16:12:10.693Z</time></trkpt><trkpt lat="45.7583342" lon="8.5909408"><ele>201.83333333333331</ele><time>2026-05-01T16:12:12.693Z</time></trkpt><trkpt lat="45.7583982" lon="8.5909779"><ele>202.0</ele><time>2026-05-01T16:12:14.692Z</time></trkpt><trkpt lat="45.7584601" lon="8.5910231"><ele>201.99999999999997</ele><time>2026-05-01T16:12:16.693Z</time></trkpt><trkpt lat="45.7585238" lon="8.5910623"><ele>202.0</ele><time>2026-05-01T16:12:18.693Z</time></trkpt><trkpt lat="45.758599" lon="8.591051"><ele>202.0</ele><time>2026-05-01T16:12:20.692Z</time></trkpt><trkpt lat="45.7586801" lon="8.5910031"><ele>202.0</ele><time>2026-05-01T16:12:22.692Z</time></trkpt><trkpt lat="45.7587671" lon="8.5909579"><ele>201.99999999999997</ele><time>2026-05-01T16:12:24.692Z</time></trkpt><trkpt lat="45.7588601" lon="8.5909464"><ele>202.0</ele><time>2026-05-01T16:12:26.692Z</time></trkpt><trkpt lat="45.7589556" lon="8.5909767"><ele>202.0</ele><time>2026-05-01T16:12:28.692Z</time></trkpt><trkpt lat="45.759051" lon="8.5910063"><ele>202.0</ele><time>2026-05-01T16:12:30.692Z</time></trkpt><trkpt lat="45.7591506" lon="8.591025"><ele>202.0</ele><time>2026-05-01T16:12:32.692Z</time></trkpt><trkpt lat="45.759245" lon="8.5910417"><ele>202.0</ele><time>2026-05-01T16:12:34.692Z</time></trkpt><trkpt lat="45.7593361" lon="8.5910674"><ele>202.0</ele><time>2026-05-01T16:12:36.692Z</time></trkpt><trkpt lat="45.7594221" lon="8.5910999"><ele>202.2</ele><time>2026-05-01T16:12:38.693Z</time></trkpt><trkpt lat="45.7595111" lon="8.5911185"><ele>202.39999999999998</ele><time>2026-05-01T16:12:40.693Z</time></trkpt><trkpt lat="45.7596004" lon="8.5911222"><ele>202.60000000000002</ele><time>2026-05-01T16:12:42.693Z</time></trkpt><trkpt lat="45.7596951" lon="8.5911253"><ele>202.8</ele><time>2026-05-01T16:12:44.693Z</time></trkpt><trkpt lat="45.7597904" lon="8.5911317"><ele>203.0</ele><time>2026-05-01T16:12:46.692Z</time></trkpt><trkpt lat="45.7598866" lon="8.5911407"><ele>203.00000000000003</ele><time>2026-05-01T16:12:48.693Z</time></trkpt><trkpt lat="45.75998" lon="8.5911554"><ele>203.0</ele><time>2026-05-01T16:12:50.692Z</time></trkpt><trkpt lat="45.7600634" lon="8.5911682"><ele>203.0</ele><time>2026-05-01T16:12:52.693Z</time></trkpt><trkpt lat="45.76013" lon="8.5911792"><ele>203.0</ele><time>2026-05-01T16:12:54.692Z</time></trkpt><trkpt lat="45.7601969" lon="8.5911915"><ele>203.00000000000003</ele><time>2026-05-01T16:13:09.692Z</time></trkpt><trkpt lat="45.7602652" lon="8.5912015"><ele>203.0</ele><time>2026-05-01T16:13:12.693Z</time></trkpt><trkpt lat="45.7603561" lon="8.5912082"><ele>203.33333333333334</ele><time>2026-05-01T16:13:15.692Z</time></trkpt><trkpt lat="45.7604324" lon="8.5912059"><ele>203.66666666666669</ele><time>2026-05-01T16:13:17.693Z</time></trkpt><trkpt lat="45.7605133" lon="8.5911954"><ele>204.0</ele><time>2026-05-01T16:13:19.692Z</time></trkpt><trkpt lat="45.7605985" lon="8.5911721"><ele>204.33333333333331</ele><time>2026-05-01T16:13:21.692Z</time></trkpt><trkpt lat="45.7606832" lon="8.5911431"><ele>204.66666666666666</ele><time>2026-05-01T16:13:23.692Z</time></trkpt><trkpt lat="45.7607559" lon="8.5911298"><ele>205.0</ele><time>2026-05-01T16:13:25.692Z</time></trkpt><trkpt lat="45.7608167" lon="8.5911723"><ele>205.2</ele><time>2026-05-01T16:13:27.692Z</time></trkpt><trkpt lat="45.7608601" lon="8.5912729"><ele>205.4</ele><time>2026-05-01T16:13:29.692Z</time></trkpt><trkpt lat="45.7609023" lon="8.5913953"><ele>205.60000000000002</ele><time>2026-05-01T16:13:31.693Z</time></trkpt><trkpt lat="45.7609487" lon="8.5915199"><ele>205.8</ele><time>2026-05-01T16:13:33.693Z</time></trkpt><trkpt lat="45.7609963" lon="8.5916507"><ele>206.0</ele><time>2026-05-01T16:13:35.692Z</time></trkpt><trkpt lat="45.7610474" lon="8.5917794"><ele>205.4</ele><time>2026-05-01T16:13:37.693Z</time></trkpt><trkpt lat="45.7610971" lon="8.5919081"><ele>204.8</ele><time>2026-05-01T16:13:39.693Z</time></trkpt><trkpt lat="45.7611456" lon="8.5920369"><ele>204.20000000000002</ele><time>2026-05-01T16:13:41.693Z</time></trkpt><trkpt lat="45.7611931" lon="8.5921643"><ele>203.60000000000002</ele><time>2026-05-01T16:13:43.692Z</time></trkpt><trkpt lat="45.7612415" lon="8.5922878"><ele>203.0</ele><time>2026-05-01T16:13:45.692Z</time></trkpt><trkpt lat="45.7612873" lon="8.5924137"><ele>202.8</ele><time>2026-05-01T16:13:47.693Z</time></trkpt><trkpt lat="45.7613354" lon="8.5925383"><ele>202.60000000000002</ele><time>2026-05-01T16:13:49.693Z</time></trkpt><trkpt lat="45.7613817" lon="8.5926677"><ele>202.39999999999998</ele><time>2026-05-01T16:13:51.693Z</time></trkpt><trkpt lat="45.7614252" lon="8.5927932"><ele>202.2</ele><time>2026-05-01T16:13:53.693Z</time></trkpt><trkpt lat="45.7614697" lon="8.592916"><ele>202.0</ele><time>2026-05-01T16:13:55.692Z</time></trkpt><trkpt lat="45.761521" lon="8.5930301"><ele>201.83333333333331</ele><time>2026-05-01T16:13:57.693Z</time></trkpt><trkpt lat="45.761572" lon="8.5931368"><ele>201.66666666666666</ele><time>2026-05-01T16:13:59.693Z</time></trkpt><trkpt lat="45.7616277" lon="8.5932189"><ele>201.5</ele><time>2026-05-01T16:14:01.693Z</time></trkpt><trkpt lat="45.7617111" lon="8.5932165"><ele>201.33333333333331</ele><time>2026-05-01T16:14:04.692Z</time></trkpt><trkpt lat="45.7617726" lon="8.5931822"><ele>201.16666666666666</ele><time>2026-05-01T16:14:06.692Z</time></trkpt><trkpt lat="45.7618524" lon="8.5931537"><ele>201.0</ele><time>2026-05-01T16:14:08.693Z</time></trkpt><trkpt lat="45.761945" lon="8.5931515"><ele>201.0</ele><time>2026-05-01T16:14:10.692Z</time></trkpt><trkpt lat="45.7620504" lon="8.5931566"><ele>201.0</ele><time>2026-05-01T16:14:12.693Z</time></trkpt><trkpt lat="45.7621613" lon="8.5931624"><ele>201.0</ele><time>2026-05-01T16:14:14.693Z</time></trkpt><trkpt lat="45.7622735" lon="8.5931713"><ele>201.0</ele><time>2026-05-01T16:14:16.693Z</time></trkpt><trkpt lat="45.7623864" lon="8.593183"><ele>201.0</ele><time>2026-05-01T16:14:18.692Z</time></trkpt><trkpt lat="45.7624975" lon="8.5931917"><ele>201.0</ele><time>2026-05-01T16:14:20.693Z</time></trkpt><trkpt lat="45.7626039" lon="8.5931897"><ele>201.0</ele><time>2026-05-01T16:14:22.693Z</time></trkpt><trkpt lat="45.7627106" lon="8.5931732"><ele>201.0</ele><time>2026-05-01T16:14:24.693Z</time></trkpt><trkpt lat="45.762815" lon="8.5931459"><ele>201.0</ele><time>2026-05-01T16:14:26.693Z</time></trkpt><trkpt lat="45.7629142" lon="8.5931095"><ele>201.0</ele><time>2026-05-01T16:14:28.693Z</time></trkpt><trkpt lat="45.7630064" lon="8.593069"><ele>201.14285714285714</ele><time>2026-05-01T16:14:30.692Z</time></trkpt><trkpt lat="45.7630816" lon="8.5930295"><ele>201.2857142857143</ele><time>2026-05-01T16:14:32.692Z</time></trkpt><trkpt lat="45.763148" lon="8.5929811"><ele>201.42857142857144</ele><time>2026-05-01T16:14:35.693Z</time></trkpt><trkpt lat="45.7632116" lon="8.593038"><ele>201.57142857142856</ele><time>2026-05-01T16:14:42.693Z</time></trkpt><trkpt lat="45.7632635" lon="8.5931132"><ele>201.71428571428572</ele><time>2026-05-01T16:14:46.693Z</time></trkpt><trkpt lat="45.7633242" lon="8.5931668"><ele>201.85714285714286</ele><time>2026-05-01T16:14:49.692Z</time></trkpt><trkpt lat="45.7633885" lon="8.5932184"><ele>202.0</ele><time>2026-05-01T16:14:52.693Z</time></trkpt><trkpt lat="45.763461" lon="8.5932545"><ele>202.0</ele><time>2026-05-01T16:14:55.693Z</time></trkpt><trkpt lat="45.76353" lon="8.5932601"><ele>202.0</ele><time>2026-05-01T16:14:58.692Z</time></trkpt><trkpt lat="45.7636117" lon="8.5932502"><ele>202.0</ele><time>2026-05-01T16:15:02.692Z</time></trkpt><trkpt lat="45.7636748" lon="8.5932441"><ele>202.0</ele><time>2026-05-01T16:15:05.693Z</time></trkpt><trkpt lat="45.7637511" lon="8.593239"><ele>202.0</ele><time>2026-05-01T16:15:08.693Z</time></trkpt><trkpt lat="45.7638373" lon="8.5932291"><ele>202.0</ele><time>2026-05-01T16:15:11.693Z</time></trkpt><trkpt lat="45.7639007" lon="8.5932263"><ele>202.0</ele><time>2026-05-01T16:15:13.693Z</time></trkpt><trkpt lat="45.7639803" lon="8.5932358"><ele>202.16666666666666</ele><time>2026-05-01T16:15:16.693Z</time></trkpt><trkpt lat="45.7640437" lon="8.5932579"><ele>202.33333333333331</ele><time>2026-05-01T16:15:32.692Z</time></trkpt><trkpt lat="45.7641145" lon="8.5932936"><ele>202.5</ele><time>2026-05-01T16:15:35.693Z</time></trkpt><trkpt lat="45.7641919" lon="8.5933412"><ele>202.66666666666669</ele><time>2026-05-01T16:15:38.692Z</time></trkpt><trkpt lat="45.7642688" lon="8.5933929"><ele>202.83333333333334</ele><time>2026-05-01T16:15:41.693Z</time></trkpt><trkpt lat="45.7643491" lon="8.5934485"><ele>203.0</ele><time>2026-05-01T16:15:44.693Z</time></trkpt><trkpt lat="45.7644227" lon="8.5934988"><ele>203.66666666666669</ele><time>2026-05-01T16:15:47.693Z</time></trkpt><trkpt lat="45.764479" lon="8.593557"><ele>204.33333333333334</ele><time>2026-05-01T16:15:50.693Z</time></trkpt><trkpt lat="45.7645398" lon="8.5936347"><ele>205.0</ele><time>2026-05-01T16:15:53.692Z</time></trkpt><trkpt lat="45.7646061" lon="8.5937274"><ele>205.66666666666669</ele><time>2026-05-01T16:15:56.692Z</time></trkpt><trkpt lat="45.7646659" lon="8.5938197"><ele>206.33333333333334</ele><time>2026-05-01T16:15:59.692Z</time></trkpt><trkpt lat="45.7647224" lon="8.5939152"><ele>207.0</ele><time>2026-05-01T16:16:02.692Z</time></trkpt><trkpt lat="45.7647714" lon="8.5940125"><ele>207.16666666666666</ele><time>2026-05-01T16:16:05.692Z</time></trkpt><trkpt lat="45.7648196" lon="8.5941091"><ele>207.33333333333331</ele><time>2026-05-01T16:16:08.692Z</time></trkpt><trkpt lat="45.7648561" lon="8.5942053"><ele>207.5</ele><time>2026-05-01T16:16:11.693Z</time></trkpt><trkpt lat="45.7648782" lon="8.5943064"><ele>207.66666666666666</ele><time>2026-05-01T16:16:14.693Z</time></trkpt><trkpt lat="45.7648847" lon="8.5944385"><ele>207.83333333333331</ele><time>2026-05-01T16:16:17.692Z</time></trkpt><trkpt lat="45.7648853" lon="8.5945331"><ele>208.0</ele><time>2026-05-01T16:16:19.692Z</time></trkpt><trkpt lat="45.7648945" lon="8.5946612"><ele>207.66666666666666</ele><time>2026-05-01T16:16:22.693Z</time></trkpt><trkpt lat="45.764919" lon="8.5947828"><ele>207.33333333333331</ele><time>2026-05-01T16:16:25.692Z</time></trkpt><trkpt lat="45.7649534" lon="8.5949008"><ele>207.0</ele><time>2026-05-01T16:16:28.693Z</time></trkpt><trkpt lat="45.7649894" lon="8.5949947"><ele>206.66666666666669</ele><time>2026-05-01T16:16:31.693Z</time></trkpt><trkpt lat="45.7650268" lon="8.5950798"><ele>206.33333333333334</ele><time>2026-05-01T16:16:34.692Z</time></trkpt><trkpt lat="45.7650702" lon="8.5951783"><ele>206.0</ele><time>2026-05-01T16:16:37.693Z</time></trkpt><trkpt lat="45.7651126" lon="8.5952719"><ele>205.83333333333334</ele><time>2026-05-01T16:16:40.693Z</time></trkpt><trkpt lat="45.7651629" lon="8.5953569"><ele>205.66666666666669</ele><time>2026-05-01T16:16:43.693Z</time></trkpt><trkpt lat="45.7652395" lon="8.5954031"><ele>205.5</ele><time>2026-05-01T16:16:46.692Z</time></trkpt><trkpt lat="45.765305" lon="8.595409"><ele>205.33333333333331</ele><time>2026-05-01T16:16:48.693Z</time></trkpt><trkpt lat="45.7653768" lon="8.5954053"><ele>205.16666666666666</ele><time>2026-05-01T16:16:50.693Z</time></trkpt><trkpt lat="45.7654482" lon="8.5954431"><ele>205.0</ele><time>2026-05-01T16:16:52.693Z</time></trkpt><trkpt lat="45.765503" lon="8.5955253"><ele>204.99999999999997</ele><time>2026-05-01T16:16:54.693Z</time></trkpt><trkpt lat="45.7655631" lon="8.5956189"><ele>205.0</ele><time>2026-05-01T16:16:56.692Z</time></trkpt><trkpt lat="45.76563" lon="8.5957004"><ele>205.0</ele><time>2026-05-01T16:16:58.693Z</time></trkpt><trkpt lat="45.7657074" lon="8.5957776"><ele>205.0</ele><time>2026-05-01T16:17:00.692Z</time></trkpt><trkpt lat="45.7657796" lon="8.5958545"><ele>204.99999999999997</ele><time>2026-05-01T16:17:02.693Z</time></trkpt><trkpt lat="45.7658408" lon="8.5959465"><ele>205.0</ele><time>2026-05-01T16:17:04.692Z</time></trkpt><trkpt lat="45.7659027" lon="8.5960382"><ele>204.99999999999997</ele><time>2026-05-01T16:17:06.692Z</time></trkpt><trkpt lat="45.765959" lon="8.5961138"><ele>205.0</ele><time>2026-05-01T16:17:08.692Z</time></trkpt><trkpt lat="45.7659927" lon="8.59621"><ele>205.0</ele><time>2026-05-01T16:17:34.693Z</time></trkpt><trkpt lat="45.7659263" lon="8.5962702"><ele>205.0</ele><time>2026-05-01T16:17:36.692Z</time></trkpt><trkpt lat="45.7658216" lon="8.5963446"><ele>204.99999999999997</ele><time>2026-05-01T16:17:38.693Z</time></trkpt><trkpt lat="45.7657536" lon="8.5964019"><ele>205.0</ele><time>2026-05-01T16:17:39.692Z</time></trkpt><trkpt lat="45.7656846" lon="8.596462"><ele>205.8</ele><time>2026-05-01T16:17:40.692Z</time></trkpt><trkpt lat="45.7656057" lon="8.5965318"><ele>206.6</ele><time>2026-05-01T16:17:41.693Z</time></trkpt><trkpt lat="45.7655166" lon="8.5966121"><ele>207.39999999999998</ele><time>2026-05-01T16:17:42.692Z</time></trkpt><trkpt lat="45.7654212" lon="8.5966984"><ele>208.2</ele><time>2026-05-01T16:17:43.692Z</time></trkpt><trkpt lat="45.7653269" lon="8.5967834"><ele>209.0</ele><time>2026-05-01T16:17:44.692Z</time></trkpt><trkpt lat="45.7652404" lon="8.5968613"><ele>209.39999999999998</ele><time>2026-05-01T16:17:45.692Z</time></trkpt><trkpt lat="45.7651589" lon="8.5969338"><ele>209.8</ele><time>2026-05-01T16:17:46.692Z</time></trkpt><trkpt lat="45.7650767" lon="8.5970066"><ele>210.2</ele><time>2026-05-01T16:17:47.692Z</time></trkpt><trkpt lat="45.7650001" lon="8.5970741"><ele>210.60000000000002</ele><time>2026-05-01T16:17:48.693Z</time></trkpt><trkpt lat="45.7649195" lon="8.5971446"><ele>211.0</ele><time>2026-05-01T16:17:49.693Z</time></trkpt><trkpt lat="45.7648372" lon="8.597217"><ele>210.99999999999997</ele><time>2026-05-01T16:17:50.692Z</time></trkpt><trkpt lat="45.764755" lon="8.5972899"><ele>211.0</ele><time>2026-05-01T16:17:51.692Z</time></trkpt><trkpt lat="45.7646768" lon="8.5973597"><ele>211.0</ele><time>2026-05-01T16:17:52.693Z</time></trkpt><trkpt lat="45.764606" lon="8.5974225"><ele>211.0</ele><time>2026-05-01T16:17:53.692Z</time></trkpt><trkpt lat="45.764547" lon="8.5974746"><ele>210.99999999999997</ele><time>2026-05-01T16:17:54.693Z</time></trkpt><trkpt lat="45.764481" lon="8.5975543"><ele>211.0</ele><time>2026-05-01T16:17:56.692Z</time></trkpt><trkpt lat="45.7644934" lon="8.5976537"><ele>211.0</ele><time>2026-05-01T16:17:59.692Z</time></trkpt><trkpt lat="45.7645352" lon="8.5977238"><ele>211.0</ele><time>2026-05-01T16:18:02.693Z</time></trkpt><trkpt lat="45.7646059" lon="8.5977815"><ele>211.0</ele><time>2026-05-01T16:18:05.692Z</time></trkpt><trkpt lat="45.764676" lon="8.5978053"><ele>211.0</ele><time>2026-05-01T16:18:10.693Z</time></trkpt><trkpt lat="45.7647031" lon="8.5979141"><ele>211.0</ele><time>2026-05-01T16:18:18.693Z</time></trkpt><trkpt lat="45.7647312" lon="8.5980192"><ele>211.0</ele><time>2026-05-01T16:18:21.692Z</time></trkpt><trkpt lat="45.7647578" lon="8.598106"><ele>211.0</ele><time>2026-05-01T16:18:23.692Z</time></trkpt><trkpt lat="45.7647982" lon="8.5981856"><ele>211.33333333333331</ele><time>2026-05-01T16:18:25.693Z</time></trkpt><trkpt lat="45.764843" lon="8.5982567"><ele>211.66666666666666</ele><time>2026-05-01T16:18:27.693Z</time></trkpt><trkpt lat="45.7648834" lon="8.598329"><ele>212.0</ele><time>2026-05-01T16:18:29.693Z</time></trkpt><trkpt lat="45.7649573" lon="8.5983921"><ele>212.33333333333331</ele><time>2026-05-01T16:18:32.693Z</time></trkpt><trkpt lat="45.7650481" lon="8.598427"><ele>212.66666666666666</ele><time>2026-05-01T16:18:35.692Z</time></trkpt><trkpt lat="45.7651385" lon="8.5984582"><ele>213.0</ele><time>2026-05-01T16:18:38.692Z</time></trkpt><trkpt lat="45.7652011" lon="8.5984773"><ele>213.14285714285714</ele><time>2026-05-01T16:18:40.692Z</time></trkpt><trkpt lat="45.7652713" lon="8.5984901"><ele>213.28571428571428</ele><time>2026-05-01T16:18:42.692Z</time></trkpt><trkpt lat="45.7653424" lon="8.5985153"><ele>213.42857142857144</ele><time>2026-05-01T16:18:44.692Z</time></trkpt><trkpt lat="45.7654051" lon="8.5985659"><ele>213.57142857142856</ele><time>2026-05-01T16:18:46.692Z</time></trkpt><trkpt lat="45.76546" lon="8.5986365"><ele>213.71428571428572</ele><time>2026-05-01T16:18:48.693Z</time></trkpt><trkpt lat="45.7655118" lon="8.5987174"><ele>213.85714285714286</ele><time>2026-05-01T16:18:50.693Z</time></trkpt><trkpt lat="45.7655665" lon="8.5987947"><ele>214.0</ele><time>2026-05-01T16:18:52.693Z</time></trkpt><trkpt lat="45.7656214" lon="8.5988616"><ele>214.00000000000003</ele><time>2026-05-01T16:18:54.693Z</time></trkpt><trkpt lat="45.7656761" lon="8.5989341"><ele>214.0</ele><time>2026-05-01T16:18:56.693Z</time></trkpt><trkpt lat="45.7657284" lon="8.5990072"><ele>214.0</ele><time>2026-05-01T16:18:58.692Z</time></trkpt><trkpt lat="45.7657745" lon="8.5990861"><ele>214.0</ele><time>2026-05-01T16:19:00.692Z</time></trkpt><trkpt lat="45.7658111" lon="8.5991704"><ele>214.0</ele><time>2026-05-01T16:19:02.693Z</time></trkpt><trkpt lat="45.7658486" lon="8.599269"><ele>214.00000000000003</ele><time>2026-05-01T16:19:04.692Z</time></trkpt><trkpt lat="45.7658911" lon="8.5993692"><ele>214.0</ele><time>2026-05-01T16:19:06.692Z</time></trkpt><trkpt lat="45.765937" lon="8.5994717"><ele>214.14285714285717</ele><time>2026-05-01T16:19:08.692Z</time></trkpt><trkpt lat="45.7659666" lon="8.5995767"><ele>214.28571428571428</ele><time>2026-05-01T16:19:10.693Z</time></trkpt><trkpt lat="45.7659763" lon="8.5996875"><ele>214.42857142857144</ele><time>2026-05-01T16:19:12.692Z</time></trkpt><trkpt lat="45.7659705" lon="8.5997816"><ele>214.57142857142858</ele><time>2026-05-01T16:19:14.692Z</time></trkpt><trkpt lat="45.7659482" lon="8.5998822"><ele>214.71428571428572</ele><time>2026-05-01T16:19:17.692Z</time></trkpt><trkpt lat="45.765909" lon="8.5999878"><ele>214.85714285714286</ele><time>2026-05-01T16:19:20.692Z</time></trkpt><trkpt lat="45.7658751" lon="8.6000684"><ele>215.0</ele><time>2026-05-01T16:19:22.692Z</time></trkpt><trkpt lat="45.7658321" lon="8.6001675"><ele>215.00000000000003</ele><time>2026-05-01T16:19:24.693Z</time></trkpt><trkpt lat="45.7657893" lon="8.6002673"><ele>215.0</ele><time>2026-05-01T16:19:26.693Z</time></trkpt><trkpt lat="45.7657435" lon="8.6003698"><ele>215.0</ele><time>2026-05-01T16:19:28.693Z</time></trkpt><trkpt lat="45.765694" lon="8.6004703"><ele>215.0</ele><time>2026-05-01T16:19:30.692Z</time></trkpt><trkpt lat="45.7656504" lon="8.6005642"><ele>215.00000000000003</ele><time>2026-05-01T16:19:32.693Z</time></trkpt><trkpt lat="45.765691" lon="8.6004777"><ele>215.0</ele><time>2026-05-01T16:19:45.693Z</time></trkpt><trkpt lat="45.7658139" lon="8.600224"><ele>215.0</ele><time>2026-05-01T16:20:57.692Z</time></trkpt><trkpt lat="45.765951" lon="8.5999707"><ele>215.0</ele><time>2026-05-01T16:20:58.692Z</time></trkpt><trkpt lat="45.7660358" lon="8.5998499"><ele>215.0</ele><time>2026-05-01T16:20:59.693Z</time></trkpt><trkpt lat="45.7661067" lon="8.5998712"><ele>215.0</ele><time>2026-05-01T16:21:02.692Z</time></trkpt><trkpt lat="45.766194" lon="8.5998902"><ele>215.00000000000003</ele><time>2026-05-01T16:21:05.692Z</time></trkpt><trkpt lat="45.7662585" lon="8.599911"><ele>215.0</ele><time>2026-05-01T16:21:16.692Z</time></trkpt><trkpt lat="45.7663241" lon="8.5999598"><ele>215.0</ele><time>2026-05-01T16:21:20.693Z</time></trkpt><trkpt lat="45.7662517" lon="8.5999178"><ele>215.0</ele><time>2026-05-01T16:22:19.692Z</time></trkpt><trkpt lat="45.7661511" lon="8.5998771"><ele>215.00000000000003</ele><time>2026-05-01T16:22:21.693Z</time></trkpt><trkpt lat="45.7660855" lon="8.5998549"><ele>215.0</ele><time>2026-05-01T16:22:27.692Z</time></trkpt><trkpt lat="45.7659729" lon="8.5998717"><ele>215.00000000000003</ele><time>2026-05-01T16:22:54.693Z</time></trkpt><trkpt lat="45.7659204" lon="8.5999428"><ele>215.0</ele><time>2026-05-01T16:22:56.693Z</time></trkpt><trkpt lat="45.7658734" lon="8.600063"><ele>215.0</ele><time>2026-05-01T16:22:59.692Z</time></trkpt><trkpt lat="45.7658329" lon="8.6001611"><ele>215.0</ele><time>2026-05-01T16:23:01.692Z</time></trkpt><trkpt lat="45.7657903" lon="8.6002604"><ele>215.00000000000003</ele><time>2026-05-01T16:23:03.692Z</time></trkpt><trkpt lat="45.765751" lon="8.6003551"><ele>215.0</ele><time>2026-05-01T16:23:05.693Z</time></trkpt><trkpt lat="45.7657024" lon="8.600458"><ele>214.6</ele><time>2026-05-01T16:23:07.693Z</time></trkpt><trkpt lat="45.7656511" lon="8.600565"><ele>214.2</ele><time>2026-05-01T16:23:09.692Z</time></trkpt><trkpt lat="45.7656008" lon="8.6006806"><ele>213.8</ele><time>2026-05-01T16:23:11.693Z</time></trkpt><trkpt lat="45.7655539" lon="8.6008026"><ele>213.4</ele><time>2026-05-01T16:23:13.692Z</time></trkpt><trkpt lat="45.765505" lon="8.6009201"><ele>213.0</ele><time>2026-05-01T16:23:15.692Z</time></trkpt><trkpt lat="45.765455" lon="8.60104"><ele>213.0</ele><time>2026-05-01T16:23:17.692Z</time></trkpt><trkpt lat="45.765406" lon="8.6011646"><ele>213.0</ele><time>2026-05-01T16:23:19.693Z</time></trkpt><trkpt lat="45.7653554" lon="8.6012905"><ele>213.0</ele><time>2026-05-01T16:23:21.692Z</time></trkpt><trkpt lat="45.7653018" lon="8.6014175"><ele>213.0</ele><time>2026-05-01T16:23:23.693Z</time></trkpt><trkpt lat="45.765248" lon="8.601536"><ele>213.0</ele><time>2026-05-01T16:23:25.692Z</time></trkpt><trkpt lat="45.7651956" lon="8.6016561"><ele>212.60000000000002</ele><time>2026-05-01T16:23:27.692Z</time></trkpt><trkpt lat="45.7651426" lon="8.6017807"><ele>212.20000000000002</ele><time>2026-05-01T16:23:29.692Z</time></trkpt><trkpt lat="45.7650904" lon="8.6019061"><ele>211.8</ele><time>2026-05-01T16:23:31.693Z</time></trkpt><trkpt lat="45.7650394" lon="8.6020306"><ele>211.4</ele><time>2026-05-01T16:23:33.692Z</time></trkpt><trkpt lat="45.7649945" lon="8.6021465"><ele>211.0</ele><time>2026-05-01T16:23:35.692Z</time></trkpt><trkpt lat="45.7649488" lon="8.6022571"><ele>211.0</ele><time>2026-05-01T16:23:37.692Z</time></trkpt><trkpt lat="45.7649042" lon="8.6023629"><ele>211.0</ele><time>2026-05-01T16:23:39.692Z</time></trkpt><trkpt lat="45.7648586" lon="8.6024691"><ele>211.0</ele><time>2026-05-01T16:23:41.692Z</time></trkpt><trkpt lat="45.7648053" lon="8.6025727"><ele>211.0</ele><time>2026-05-01T16:23:43.693Z</time></trkpt><trkpt lat="45.7647491" lon="8.6026831"><ele>211.0</ele><time>2026-05-01T16:23:45.693Z</time></trkpt><trkpt lat="45.7646962" lon="8.6028026"><ele>211.16666666666666</ele><time>2026-05-01T16:23:47.692Z</time></trkpt><trkpt lat="45.7646519" lon="8.6029182"><ele>211.33333333333331</ele><time>2026-05-01T16:23:49.693Z</time></trkpt><trkpt lat="45.7646233" lon="8.6030133"><ele>211.5</ele><time>2026-05-01T16:23:51.693Z</time></trkpt><trkpt lat="45.7645939" lon="8.6031201"><ele>211.66666666666669</ele><time>2026-05-01T16:23:54.692Z</time></trkpt><trkpt lat="45.7646154" lon="8.6032068"><ele>211.83333333333334</ele><time>2026-05-01T16:24:01.692Z</time></trkpt><trkpt lat="45.7647077" lon="8.6031991"><ele>212.0</ele><time>2026-05-01T16:24:11.692Z</time></trkpt><trkpt lat="45.7647953" lon="8.6032166"><ele>212.0</ele><time>2026-05-01T16:24:13.692Z</time></trkpt><trkpt lat="45.7648939" lon="8.6032569"><ele>212.0</ele><time>2026-05-01T16:24:15.692Z</time></trkpt><trkpt lat="45.7649905" lon="8.6033017"><ele>212.0</ele><time>2026-05-01T16:24:17.693Z</time></trkpt><trkpt lat="45.7650881" lon="8.6033477"><ele>212.0</ele><time>2026-05-01T16:24:19.692Z</time></trkpt><trkpt lat="45.7651814" lon="8.6033892"><ele>212.0</ele><time>2026-05-01T16:24:21.693Z</time></trkpt><trkpt lat="45.7652747" lon="8.6034275"><ele>212.0</ele><time>2026-05-01T16:24:23.692Z</time></trkpt><trkpt lat="45.7653663" lon="8.6034691"><ele>212.0</ele><time>2026-05-01T16:24:25.693Z</time></trkpt><trkpt lat="45.7654548" lon="8.6035205"><ele>212.0</ele><time>2026-05-01T16:24:27.693Z</time></trkpt><trkpt lat="45.7655332" lon="8.6035732"><ele>212.0</ele><time>2026-05-01T16:24:29.693Z</time></trkpt><trkpt lat="45.7656099" lon="8.6036394"><ele>212.0</ele><time>2026-05-01T16:24:31.693Z</time></trkpt><trkpt lat="45.7656728" lon="8.6037164"><ele>212.00000000000003</ele><time>2026-05-01T16:24:33.692Z</time></trkpt><trkpt lat="45.7657274" lon="8.6038063"><ele>212.0</ele><time>2026-05-01T16:24:35.693Z</time></trkpt><trkpt lat="45.7657797" lon="8.6038969"><ele>212.0</ele><time>2026-05-01T16:24:37.693Z</time></trkpt><trkpt lat="45.7658332" lon="8.6039813"><ele>212.0</ele><time>2026-05-01T16:24:39.692Z</time></trkpt><trkpt lat="45.765885" lon="8.6040585"><ele>212.00000000000003</ele><time>2026-05-01T16:24:41.693Z</time></trkpt><trkpt lat="45.7659311" lon="8.6041332"><ele>212.0</ele><time>2026-05-01T16:24:43.693Z</time></trkpt><trkpt lat="45.7659723" lon="8.6042154"><ele>212.00000000000003</ele><time>2026-05-01T16:24:45.693Z</time></trkpt><trkpt lat="45.7660099" lon="8.6043012"><ele>212.0</ele><time>2026-05-01T16:24:47.692Z</time></trkpt><trkpt lat="45.7660555" lon="8.6043763"><ele>212.0</ele><time>2026-05-01T16:24:49.692Z</time></trkpt><trkpt lat="45.7661155" lon="8.6044443"><ele>212.0</ele><time>2026-05-01T16:24:51.693Z</time></trkpt><trkpt lat="45.7661703" lon="8.6045275"><ele>212.00000000000003</ele><time>2026-05-01T16:24:53.692Z</time></trkpt><trkpt lat="45.7662323" lon="8.6045966"><ele>212.0</ele><time>2026-05-01T16:24:55.692Z</time></trkpt><trkpt lat="45.7663038" lon="8.6046452"><ele>212.00000000000003</ele><time>2026-05-01T16:24:57.692Z</time></trkpt><trkpt lat="45.7663671" lon="8.6047087"><ele>212.0</ele><time>2026-05-01T16:24:59.693Z</time></trkpt><trkpt lat="45.7664243" lon="8.6047823"><ele>212.0</ele><time>2026-05-01T16:25:01.692Z</time></trkpt><trkpt lat="45.7664941" lon="8.6048454"><ele>212.0</ele><time>2026-05-01T16:25:03.692Z</time></trkpt><trkpt lat="45.7665663" lon="8.6049162"><ele>212.00000000000003</ele><time>2026-05-01T16:25:05.693Z</time></trkpt><trkpt lat="45.7666402" lon="8.604984"><ele>212.0</ele><time>2026-05-01T16:25:07.693Z</time></trkpt><trkpt lat="45.7667115" lon="8.6050441"><ele>212.0</ele><time>2026-05-01T16:25:09.692Z</time></trkpt><trkpt lat="45.7667799" lon="8.6051146"><ele>212.0</ele><time>2026-05-01T16:25:11.693Z</time></trkpt><trkpt lat="45.766849" lon="8.6051975"><ele>212.0</ele><time>2026-05-01T16:25:13.693Z</time></trkpt><trkpt lat="45.7669238" lon="8.6052829"><ele>212.0</ele><time>2026-05-01T16:25:15.692Z</time></trkpt><trkpt lat="45.7669975" lon="8.6053642"><ele>212.0</ele><time>2026-05-01T16:25:17.693Z</time></trkpt><trkpt lat="45.7670745" lon="8.6054294"><ele>212.33333333333334</ele><time>2026-05-01T16:25:19.693Z</time></trkpt><trkpt lat="45.7671491" lon="8.6054915"><ele>212.66666666666669</ele><time>2026-05-01T16:25:21.692Z</time></trkpt><trkpt lat="45.7672241" lon="8.6055428"><ele>213.0</ele><time>2026-05-01T16:25:23.693Z</time></trkpt><trkpt lat="45.7673031" lon="8.6055851"><ele>213.33333333333331</ele><time>2026-05-01T16:25:25.693Z</time></trkpt><trkpt lat="45.7673724" lon="8.6056305"><ele>213.66666666666666</ele><time>2026-05-01T16:25:27.693Z</time></trkpt><trkpt lat="45.7674328" lon="8.6056689"><ele>214.0</ele><time>2026-05-01T16:25:31.693Z</time></trkpt><trkpt lat="45.7675027" lon="8.6056624"><ele>213.99999999999997</ele><time>2026-05-01T16:25:34.692Z</time></trkpt><trkpt lat="45.7675835" lon="8.6056287"><ele>214.0</ele><time>2026-05-01T16:25:36.693Z</time></trkpt><trkpt lat="45.7676971" lon="8.6055634"><ele>214.0</ele><time>2026-05-01T16:25:38.693Z</time></trkpt><trkpt lat="45.7677637" lon="8.6055237"><ele>214.0</ele><time>2026-05-01T16:25:39.692Z</time></trkpt><trkpt lat="45.7678362" lon="8.6054776"><ele>213.99999999999997</ele><time>2026-05-01T16:25:40.693Z</time></trkpt><trkpt lat="45.7679164" lon="8.6054255"><ele>214.0</ele><time>2026-05-01T16:25:41.692Z</time></trkpt><trkpt lat="45.7680073" lon="8.6053658"><ele>213.0</ele><time>2026-05-01T16:25:42.693Z</time></trkpt><trkpt lat="45.768102" lon="8.6053057"><ele>211.99999999999997</ele><time>2026-05-01T16:25:43.693Z</time></trkpt><trkpt lat="45.7682046" lon="8.6052431"><ele>211.0</ele><time>2026-05-01T16:25:44.692Z</time></trkpt><trkpt lat="45.7683087" lon="8.6051843"><ele>210.0</ele><time>2026-05-01T16:25:45.693Z</time></trkpt><trkpt lat="45.768416" lon="8.6051245"><ele>209.0</ele><time>2026-05-01T16:25:46.693Z</time></trkpt><trkpt lat="45.7685245" lon="8.6050641"><ele>209.0</ele><time>2026-05-01T16:25:47.692Z</time></trkpt><trkpt lat="45.76862" lon="8.6050082"><ele>209.0</ele><time>2026-05-01T16:25:48.692Z</time></trkpt><trkpt lat="45.7687051" lon="8.604952"><ele>209.0</ele><time>2026-05-01T16:25:49.693Z</time></trkpt><trkpt lat="45.7687737" lon="8.6048979"><ele>209.0</ele><time>2026-05-01T16:25:50.693Z</time></trkpt><trkpt lat="45.7688234" lon="8.6048368"><ele>209.0</ele><time>2026-05-01T16:25:51.692Z</time></trkpt><trkpt lat="45.7688769" lon="8.604688"><ele>209.0</ele><time>2026-05-01T16:25:53.692Z</time></trkpt><trkpt lat="45.7689017" lon="8.6045724"><ele>209.0</ele><time>2026-05-01T16:25:55.693Z</time></trkpt><trkpt lat="45.7689077" lon="8.6044818"><ele>209.0</ele><time>2026-05-01T16:25:57.693Z</time></trkpt><trkpt lat="45.7688894" lon="8.6043935"><ele>209.0</ele><time>2026-05-01T16:25:59.693Z</time></trkpt><trkpt lat="45.7688887" lon="8.6042953"><ele>209.0</ele><time>2026-05-01T16:26:01.693Z</time></trkpt><trkpt lat="45.7688936" lon="8.6041947"><ele>209.0</ele><time>2026-05-01T16:26:03.692Z</time></trkpt><trkpt lat="45.7688974" lon="8.6041028"><ele>209.0</ele><time>2026-05-01T16:26:05.692Z</time></trkpt><trkpt lat="45.7689006" lon="8.6040115"><ele>209.0</ele><time>2026-05-01T16:26:07.692Z</time></trkpt><trkpt lat="45.7689009" lon="8.6039139"><ele>209.0</ele><time>2026-05-01T16:26:09.692Z</time></trkpt><trkpt lat="45.7688802" lon="8.6038207"><ele>209.0</ele><time>2026-05-01T16:26:11.693Z</time></trkpt><trkpt lat="45.7688717" lon="8.6037278"><ele>209.0</ele><time>2026-05-01T16:26:13.692Z</time></trkpt><trkpt lat="45.7688773" lon="8.6036354"><ele>209.0</ele><time>2026-05-01T16:26:15.692Z</time></trkpt><trkpt lat="45.7688858" lon="8.603536"><ele>209.0</ele><time>2026-05-01T16:26:17.693Z</time></trkpt><trkpt lat="45.7688949" lon="8.603434"><ele>209.0</ele><time>2026-05-01T16:26:19.693Z</time></trkpt><trkpt lat="45.7689032" lon="8.6033272"><ele>209.28571428571428</ele><time>2026-05-01T16:26:21.692Z</time></trkpt><trkpt lat="45.7689079" lon="8.6032229"><ele>209.57142857142856</ele><time>2026-05-01T16:26:23.692Z</time></trkpt><trkpt lat="45.7689127" lon="8.6031196"><ele>209.85714285714286</ele><time>2026-05-01T16:26:25.692Z</time></trkpt><trkpt lat="45.7689161" lon="8.6030157"><ele>210.14285714285714</ele><time>2026-05-01T16:26:27.692Z</time></trkpt><trkpt lat="45.7689176" lon="8.6029094"><ele>210.42857142857144</ele><time>2026-05-01T16:26:29.693Z</time></trkpt><trkpt lat="45.7689135" lon="8.602799"><ele>210.71428571428572</ele><time>2026-05-01T16:26:31.693Z</time></trkpt><trkpt lat="45.7689044" lon="8.6026857"><ele>211.0</ele><time>2026-05-01T16:26:33.692Z</time></trkpt><trkpt lat="45.7688891" lon="8.6025734"><ele>210.99999999999997</ele><time>2026-05-01T16:26:35.692Z</time></trkpt><trkpt lat="45.7688698" lon="8.6024635"><ele>211.0</ele><time>2026-05-01T16:26:37.692Z</time></trkpt><trkpt lat="45.7688497" lon="8.6023554"><ele>211.0</ele><time>2026-05-01T16:26:39.692Z</time></trkpt><trkpt lat="45.768827" lon="8.6022487"><ele>211.0</ele><time>2026-05-01T16:26:41.692Z</time></trkpt><trkpt lat="45.7687993" lon="8.6021376"><ele>210.99999999999997</ele><time>2026-05-01T16:26:43.693Z</time></trkpt><trkpt lat="45.768771" lon="8.602018"><ele>211.0</ele><time>2026-05-01T16:26:45.693Z</time></trkpt><trkpt lat="45.7687457" lon="8.6019023"><ele>210.66666666666666</ele><time>2026-05-01T16:26:47.692Z</time></trkpt><trkpt lat="45.7687239" lon="8.6017788"><ele>210.33333333333331</ele><time>2026-05-01T16:26:49.692Z</time></trkpt><trkpt lat="45.7687001" lon="8.6016602"><ele>210.0</ele><time>2026-05-01T16:26:51.692Z</time></trkpt><trkpt lat="45.7686754" lon="8.6015399"><ele>209.66666666666669</ele><time>2026-05-01T16:26:53.692Z</time></trkpt><trkpt lat="45.7686536" lon="8.6014195"><ele>209.33333333333334</ele><time>2026-05-01T16:26:55.692Z</time></trkpt><trkpt lat="45.768629" lon="8.6012964"><ele>209.0</ele><time>2026-05-01T16:26:57.692Z</time></trkpt><trkpt lat="45.7686062" lon="8.6011751"><ele>209.33333333333334</ele><time>2026-05-01T16:26:59.692Z</time></trkpt><trkpt lat="45.7685908" lon="8.6010561"><ele>209.66666666666669</ele><time>2026-05-01T16:27:01.693Z</time></trkpt><trkpt lat="45.7686018" lon="8.6009366"><ele>210.0</ele><time>2026-05-01T16:27:03.692Z</time></trkpt><trkpt lat="45.7686239" lon="8.6008111"><ele>210.33333333333331</ele><time>2026-05-01T16:27:05.693Z</time></trkpt><trkpt lat="45.7686506" lon="8.6006952"><ele>210.66666666666666</ele><time>2026-05-01T16:27:07.692Z</time></trkpt><trkpt lat="45.7686765" lon="8.6005746"><ele>211.0</ele><time>2026-05-01T16:27:09.693Z</time></trkpt><trkpt lat="45.7686982" lon="8.6004569"><ele>210.99999999999997</ele><time>2026-05-01T16:27:11.692Z</time></trkpt><trkpt lat="45.7687331" lon="8.6003388"><ele>211.0</ele><time>2026-05-01T16:27:13.693Z</time></trkpt><trkpt lat="45.7687734" lon="8.6002352"><ele>211.0</ele><time>2026-05-01T16:27:15.692Z</time></trkpt><trkpt lat="45.768801" lon="8.6001322"><ele>211.0</ele><time>2026-05-01T16:27:17.693Z</time></trkpt><trkpt lat="45.768849" lon="8.6000318"><ele>210.99999999999997</ele><time>2026-05-01T16:27:19.692Z</time></trkpt><trkpt lat="45.7689077" lon="8.5999356"><ele>211.0</ele><time>2026-05-01T16:27:21.692Z</time></trkpt><trkpt lat="45.7689767" lon="8.5998469"><ele>211.20000000000002</ele><time>2026-05-01T16:27:23.692Z</time></trkpt><trkpt lat="45.7690529" lon="8.5997666"><ele>211.4</ele><time>2026-05-01T16:27:25.693Z</time></trkpt><trkpt lat="45.7691316" lon="8.5996886"><ele>211.6</ele><time>2026-05-01T16:27:27.693Z</time></trkpt><trkpt lat="45.7692179" lon="8.5996094"><ele>211.8</ele><time>2026-05-01T16:27:29.693Z</time></trkpt><trkpt lat="45.7693159" lon="8.5995298"><ele>212.0</ele><time>2026-05-01T16:27:31.692Z</time></trkpt><trkpt lat="45.7694095" lon="8.5994514"><ele>211.2</ele><time>2026-05-01T16:27:33.692Z</time></trkpt><trkpt lat="45.7694958" lon="8.5993746"><ele>210.39999999999998</ele><time>2026-05-01T16:27:35.693Z</time></trkpt><trkpt lat="45.7695743" lon="8.5993067"><ele>209.60000000000002</ele><time>2026-05-01T16:27:37.692Z</time></trkpt><trkpt lat="45.7696505" lon="8.5992381"><ele>208.8</ele><time>2026-05-01T16:27:39.693Z</time></trkpt><trkpt lat="45.7697395" lon="8.5991665"><ele>208.0</ele><time>2026-05-01T16:27:41.692Z</time></trkpt><trkpt lat="45.769834" lon="8.5990704"><ele>208.0</ele><time>2026-05-01T16:27:43.693Z</time></trkpt><trkpt lat="45.7699134" lon="8.5989546"><ele>208.0</ele><time>2026-05-01T16:27:45.693Z</time></trkpt><trkpt lat="45.769972" lon="8.5988347"><ele>208.0</ele><time>2026-05-01T16:27:47.692Z</time></trkpt><trkpt lat="45.7700094" lon="8.5987481"><ele>208.0</ele><time>2026-05-01T16:27:49.693Z</time></trkpt><trkpt lat="45.7700713" lon="8.5987123"><ele>208.0</ele><time>2026-05-01T16:27:53.692Z</time></trkpt><trkpt lat="45.7701595" lon="8.598773"><ele>208.16666666666666</ele><time>2026-05-01T16:27:56.692Z</time></trkpt><trkpt lat="45.7702499" lon="8.5988198"><ele>208.33333333333331</ele><time>2026-05-01T16:27:58.692Z</time></trkpt><trkpt lat="45.7703664" lon="8.5988573"><ele>208.5</ele><time>2026-05-01T16:28:00.692Z</time></trkpt><trkpt lat="45.7704311" lon="8.5988655"><ele>208.66666666666669</ele><time>2026-05-01T16:28:01.693Z</time></trkpt><trkpt lat="45.7704994" lon="8.5988716"><ele>208.83333333333334</ele><time>2026-05-01T16:28:02.693Z</time></trkpt><trkpt lat="45.7705729" lon="8.5988844"><ele>209.0</ele><time>2026-05-01T16:28:03.692Z</time></trkpt><trkpt lat="45.7706441" lon="8.5989004"><ele>209.00000000000003</ele><time>2026-05-01T16:28:04.692Z</time></trkpt><trkpt lat="45.7707154" lon="8.5989252"><ele>209.0</ele><time>2026-05-01T16:28:05.692Z</time></trkpt><trkpt lat="45.7707878" lon="8.5989544"><ele>209.0</ele><time>2026-05-01T16:28:06.693Z</time></trkpt><trkpt lat="45.7708626" lon="8.5989846"><ele>209.0</ele><time>2026-05-01T16:28:07.692Z</time></trkpt><trkpt lat="45.7709402" lon="8.5990156"><ele>209.00000000000003</ele><time>2026-05-01T16:28:08.692Z</time></trkpt><trkpt lat="45.771012" lon="8.5990459"><ele>209.0</ele><time>2026-05-01T16:28:09.692Z</time></trkpt><trkpt lat="45.7710806" lon="8.5990772"><ele>209.2</ele><time>2026-05-01T16:28:10.692Z</time></trkpt><trkpt lat="45.7711759" lon="8.5991218"><ele>209.39999999999998</ele><time>2026-05-01T16:28:12.693Z</time></trkpt><trkpt lat="45.7712407" lon="8.5991483"><ele>209.6</ele><time>2026-05-01T16:28:16.692Z</time></trkpt><trkpt lat="45.7713065" lon="8.5991009"><ele>209.8</ele><time>2026-05-01T16:28:36.693Z</time></trkpt><trkpt lat="45.7713409" lon="8.5989782"><ele>210.0</ele><time>2026-05-01T16:28:38.693Z</time></trkpt><trkpt lat="45.7714072" lon="8.5988239"><ele>210.0</ele><time>2026-05-01T16:28:40.693Z</time></trkpt><trkpt lat="45.7714646" lon="8.5987867"><ele>210.0</ele><time>2026-05-01T16:28:41.693Z</time></trkpt><trkpt lat="45.7715387" lon="8.5987829"><ele>210.0</ele><time>2026-05-01T16:28:42.692Z</time></trkpt><trkpt lat="45.7716243" lon="8.598808"><ele>210.0</ele><time>2026-05-01T16:28:43.692Z</time></trkpt><trkpt lat="45.7717106" lon="8.5988671"><ele>210.0</ele><time>2026-05-01T16:28:44.692Z</time></trkpt><trkpt lat="45.7717897" lon="8.5989346"><ele>210.0</ele><time>2026-05-01T16:28:45.693Z</time></trkpt><trkpt lat="45.7718784" lon="8.5990139"><ele>210.0</ele><time>2026-05-01T16:28:46.693Z</time></trkpt><trkpt lat="45.7719678" lon="8.5990974"><ele>210.0</ele><time>2026-05-01T16:28:47.693Z</time></trkpt><trkpt lat="45.77207" lon="8.5991885"><ele>210.0</ele><time>2026-05-01T16:28:48.693Z</time></trkpt><trkpt lat="45.7721723" lon="8.5992685"><ele>210.0</ele><time>2026-05-01T16:28:49.693Z</time></trkpt><trkpt lat="45.7722979" lon="8.5993354"><ele>210.0</ele><time>2026-05-01T16:28:50.692Z</time></trkpt><trkpt lat="45.7724396" lon="8.5993907"><ele>210.0</ele><time>2026-05-01T16:28:51.692Z</time></trkpt><trkpt lat="45.7725691" lon="8.5994478"><ele>210.0</ele><time>2026-05-01T16:28:52.692Z</time></trkpt><trkpt lat="45.7726989" lon="8.5995031"><ele>210.0</ele><time>2026-05-01T16:28:53.693Z</time></trkpt><trkpt lat="45.7728273" lon="8.5995546"><ele>209.75</ele><time>2026-05-01T16:28:54.692Z</time></trkpt><trkpt lat="45.7729608" lon="8.5996084"><ele>209.5</ele><time>2026-05-01T16:28:55.692Z</time></trkpt><trkpt lat="45.7730962" lon="8.5996635"><ele>209.25</ele><time>2026-05-01T16:28:56.693Z</time></trkpt><trkpt lat="45.7732238" lon="8.5997142"><ele>209.0</ele><time>2026-05-01T16:28:57.692Z</time></trkpt><trkpt lat="45.7733604" lon="8.5997637"><ele>209.0</ele><time>2026-05-01T16:28:58.693Z</time></trkpt><trkpt lat="45.773505" lon="8.5998095"><ele>209.0</ele><time>2026-05-01T16:28:59.693Z</time></trkpt><trkpt lat="45.7736484" lon="8.59985"><ele>209.0</ele><time>2026-05-01T16:29:00.692Z</time></trkpt><trkpt lat="45.7737949" lon="8.5998886"><ele>209.0</ele><time>2026-05-01T16:29:01.693Z</time></trkpt><trkpt lat="45.7739394" lon="8.5999287"><ele>209.0</ele><time>2026-05-01T16:29:02.693Z</time></trkpt><trkpt lat="45.7740876" lon="8.5999686"><ele>209.0</ele><time>2026-05-01T16:29:03.693Z</time></trkpt><trkpt lat="45.7742412" lon="8.600008"><ele>209.0</ele><time>2026-05-01T16:29:04.692Z</time></trkpt><trkpt lat="45.7743905" lon="8.6000455"><ele>208.66666666666669</ele><time>2026-05-01T16:29:05.693Z</time></trkpt><trkpt lat="45.7745363" lon="8.6000813"><ele>208.33333333333331</ele><time>2026-05-01T16:29:06.692Z</time></trkpt><trkpt lat="45.7746893" lon="8.600118"><ele>208.0</ele><time>2026-05-01T16:29:07.693Z</time></trkpt><trkpt lat="45.7748375" lon="8.6001534"><ele>208.0</ele><time>2026-05-01T16:29:08.692Z</time></trkpt><trkpt lat="45.7749827" lon="8.6001909"><ele>208.0</ele><time>2026-05-01T16:29:09.693Z</time></trkpt><trkpt lat="45.7751349" lon="8.6002324"><ele>208.0</ele><time>2026-05-01T16:29:10.692Z</time></trkpt><trkpt lat="45.7752822" lon="8.6002714"><ele>208.33333333333331</ele><time>2026-05-01T16:29:11.692Z</time></trkpt><trkpt lat="45.7754376" lon="8.6003117"><ele>208.66666666666669</ele><time>2026-05-01T16:29:12.693Z</time></trkpt><trkpt lat="45.7755878" lon="8.6003486"><ele>209.0</ele><time>2026-05-01T16:29:13.693Z</time></trkpt><trkpt lat="45.775737" lon="8.6003863"><ele>209.0</ele><time>2026-05-01T16:29:14.692Z</time></trkpt><trkpt lat="45.7758853" lon="8.6004277"><ele>209.0</ele><time>2026-05-01T16:29:15.692Z</time></trkpt><trkpt lat="45.776025" lon="8.6004696"><ele>209.0</ele><time>2026-05-01T16:29:16.693Z</time></trkpt><trkpt lat="45.7761575" lon="8.6005079"><ele>209.0</ele><time>2026-05-01T16:29:17.693Z</time></trkpt><trkpt lat="45.7762803" lon="8.6005419"><ele>209.33333333333334</ele><time>2026-05-01T16:29:18.693Z</time></trkpt><trkpt lat="45.7763865" lon="8.6005718"><ele>209.66666666666669</ele><time>2026-05-01T16:29:19.693Z</time></trkpt><trkpt lat="45.7764813" lon="8.6005986"><ele>210.0</ele><time>2026-05-01T16:29:20.693Z</time></trkpt><trkpt lat="45.7765511" lon="8.6006185"><ele>210.33333333333331</ele><time>2026-05-01T16:29:21.693Z</time></trkpt><trkpt lat="45.7766371" lon="8.6006475"><ele>210.66666666666666</ele><time>2026-05-01T16:29:23.693Z</time></trkpt><trkpt lat="45.7766895" lon="8.600715"><ele>211.0</ele><time>2026-05-01T16:29:27.692Z</time></trkpt><trkpt lat="45.776696" lon="8.6008134"><ele>210.99999999999997</ele><time>2026-05-01T16:29:29.692Z</time></trkpt><trkpt lat="45.7767127" lon="8.6009113"><ele>211.0</ele><time>2026-05-01T16:29:31.692Z</time></trkpt><trkpt lat="45.7767822" lon="8.600945"><ele>211.0</ele><time>2026-05-01T16:29:33.693Z</time></trkpt><trkpt lat="45.7769034" lon="8.6009368"><ele>211.0</ele><time>2026-05-01T16:29:35.693Z</time></trkpt><trkpt lat="45.7769709" lon="8.6009329"><ele>210.99999999999997</ele><time>2026-05-01T16:29:36.693Z</time></trkpt><trkpt lat="45.777046" lon="8.6009292"><ele>211.0</ele><time>2026-05-01T16:29:37.692Z</time></trkpt><trkpt lat="45.7771336" lon="8.6009247"><ele>211.0</ele><time>2026-05-01T16:29:38.692Z</time></trkpt><trkpt lat="45.7772356" lon="8.6009187"><ele>211.0</ele><time>2026-05-01T16:29:39.692Z</time></trkpt><trkpt lat="45.7773346" lon="8.6009147"><ele>211.0</ele><time>2026-05-01T16:29:40.693Z</time></trkpt><trkpt lat="45.7774405" lon="8.6009117"><ele>211.0</ele><time>2026-05-01T16:29:41.693Z</time></trkpt><trkpt lat="45.7775539" lon="8.6009093"><ele>211.0</ele><time>2026-05-01T16:29:42.692Z</time></trkpt><trkpt lat="45.7776716" lon="8.6009087"><ele>212.0</ele><time>2026-05-01T16:29:43.693Z</time></trkpt><trkpt lat="45.7777909" lon="8.6009061"><ele>213.0</ele><time>2026-05-01T16:29:44.692Z</time></trkpt><trkpt lat="45.7779063" lon="8.6008954"><ele>214.0</ele><time>2026-05-01T16:29:45.693Z</time></trkpt><trkpt lat="45.7780176" lon="8.6008719"><ele>215.0</ele><time>2026-05-01T16:29:46.692Z</time></trkpt><trkpt lat="45.7781223" lon="8.6008351"><ele>215.0</ele><time>2026-05-01T16:29:47.693Z</time></trkpt><trkpt lat="45.7782186" lon="8.6007921"><ele>215.0</ele><time>2026-05-01T16:29:48.693Z</time></trkpt><trkpt lat="45.7783058" lon="8.600737"><ele>215.0</ele><time>2026-05-01T16:29:49.693Z</time></trkpt><trkpt lat="45.7783861" lon="8.6006736"><ele>215.0</ele><time>2026-05-01T16:29:50.692Z</time></trkpt><trkpt lat="45.7784598" lon="8.6006118"><ele>215.0</ele><time>2026-05-01T16:29:51.692Z</time></trkpt><trkpt lat="45.7785334" lon="8.6005501"><ele>214.83333333333334</ele><time>2026-05-01T16:29:52.693Z</time></trkpt><trkpt lat="45.7785982" lon="8.6004954"><ele>214.66666666666669</ele><time>2026-05-01T16:29:53.693Z</time></trkpt><trkpt lat="45.7786541" lon="8.6004474"><ele>214.5</ele><time>2026-05-01T16:29:54.692Z</time></trkpt><trkpt lat="45.7787263" lon="8.6003839"><ele>214.33333333333331</ele><time>2026-05-01T16:29:56.693Z</time></trkpt><trkpt lat="45.7787966" lon="8.6003321"><ele>214.16666666666666</ele><time>2026-05-01T16:30:00.693Z</time></trkpt><trkpt lat="45.778872" lon="8.6004047"><ele>214.0</ele><time>2026-05-01T16:30:04.692Z</time></trkpt><trkpt lat="45.7789162" lon="8.6004978"><ele>215.0</ele><time>2026-05-01T16:30:06.692Z</time></trkpt><trkpt lat="45.7789715" lon="8.600626"><ele>215.99999999999997</ele><time>2026-05-01T16:30:08.692Z</time></trkpt><trkpt lat="45.7790202" lon="8.6007485"><ele>216.99999999999997</ele><time>2026-05-01T16:30:10.693Z</time></trkpt><trkpt lat="45.77908" lon="8.6008294"><ele>218.0</ele><time>2026-05-01T16:30:12.693Z</time></trkpt><trkpt lat="45.7791675" lon="8.6008025"><ele>219.0</ele><time>2026-05-01T16:30:15.693Z</time></trkpt><trkpt lat="45.7792405" lon="8.6007305"><ele>219.0</ele><time>2026-05-01T16:30:17.692Z</time></trkpt><trkpt lat="45.7793244" lon="8.6006464"><ele>218.99999999999997</ele><time>2026-05-01T16:30:19.693Z</time></trkpt><trkpt lat="45.779411" lon="8.6005594"><ele>218.99999999999997</ele><time>2026-05-01T16:30:21.692Z</time></trkpt><trkpt lat="45.7794977" lon="8.6004728"><ele>219.0</ele><time>2026-05-01T16:30:23.693Z</time></trkpt><trkpt lat="45.7795922" lon="8.6003816"><ele>219.0</ele><time>2026-05-01T16:30:25.693Z</time></trkpt><trkpt lat="45.779687" lon="8.6002888"><ele>218.79999999999998</ele><time>2026-05-01T16:30:27.693Z</time></trkpt><trkpt lat="45.779785" lon="8.6001878"><ele>218.59999999999997</ele><time>2026-05-01T16:30:29.692Z</time></trkpt><trkpt lat="45.7798793" lon="8.600093"><ele>218.4</ele><time>2026-05-01T16:30:31.692Z</time></trkpt><trkpt lat="45.7799698" lon="8.6000029"><ele>218.2</ele><time>2026-05-01T16:30:33.693Z</time></trkpt><trkpt lat="45.7800406" lon="8.599923"><ele>218.0</ele><time>2026-05-01T16:30:35.693Z</time></trkpt><trkpt lat="45.7800956" lon="8.5998459"><ele>218.00000000000003</ele><time>2026-05-01T16:30:37.693Z</time></trkpt><trkpt lat="45.7801385" lon="8.5997664"><ele>218.0</ele><time>2026-05-01T16:30:39.692Z</time></trkpt><trkpt lat="45.7801771" lon="8.5996766"><ele>218.0</ele><time>2026-05-01T16:30:41.693Z</time></trkpt><trkpt lat="45.7802154" lon="8.5995721"><ele>218.0</ele><time>2026-05-01T16:30:43.692Z</time></trkpt><trkpt lat="45.7802515" lon="8.5994635"><ele>218.00000000000003</ele><time>2026-05-01T16:30:45.693Z</time></trkpt><trkpt lat="45.7802841" lon="8.5993537"><ele>218.0</ele><time>2026-05-01T16:30:47.693Z</time></trkpt><trkpt lat="45.7803195" lon="8.5992353"><ele>217.83333333333334</ele><time>2026-05-01T16:30:49.692Z</time></trkpt><trkpt lat="45.7803613" lon="8.5991205"><ele>217.66666666666669</ele><time>2026-05-01T16:30:51.693Z</time></trkpt><trkpt lat="45.7804061" lon="8.5990048"><ele>217.5</ele><time>2026-05-01T16:30:53.693Z</time></trkpt><trkpt lat="45.7804493" lon="8.5988877"><ele>217.33333333333331</ele><time>2026-05-01T16:30:55.692Z</time></trkpt><trkpt lat="45.7804914" lon="8.5987734"><ele>217.16666666666666</ele><time>2026-05-01T16:30:57.693Z</time></trkpt><trkpt lat="45.7805238" lon="8.5986848"><ele>217.0</ele><time>2026-05-01T16:30:59.693Z</time></trkpt><trkpt lat="45.7805576" lon="8.5985947"><ele>216.49999999999997</ele><time>2026-05-01T16:31:02.692Z</time></trkpt><trkpt lat="45.7805991" lon="8.5984945"><ele>216.0</ele><time>2026-05-01T16:31:06.693Z</time></trkpt><trkpt lat="45.7806417" lon="8.598391"><ele>215.5</ele><time>2026-05-01T16:31:10.692Z</time></trkpt><trkpt lat="45.7806724" lon="8.5983024"><ele>215.0</ele><time>2026-05-01T16:31:13.692Z</time></trkpt><trkpt lat="45.7807026" lon="8.5982013"><ele>214.49999999999997</ele><time>2026-05-01T16:31:16.692Z</time></trkpt><trkpt lat="45.7807421" lon="8.5980752"><ele>214.0</ele><time>2026-05-01T16:31:19.693Z</time></trkpt><trkpt lat="45.7807764" lon="8.5979782"><ele>213.99999999999997</ele><time>2026-05-01T16:31:21.692Z</time></trkpt><trkpt lat="45.7808106" lon="8.5978821"><ele>214.0</ele><time>2026-05-01T16:31:24.692Z</time></trkpt><trkpt lat="45.7807856" lon="8.5977785"><ele>214.0</ele><time>2026-05-01T16:31:32.692Z</time></trkpt><trkpt lat="45.7807177" lon="8.5977026"><ele>214.0</ele><time>2026-05-01T16:31:35.693Z</time></trkpt><trkpt lat="45.7807127" lon="8.5976049"><ele>213.99999999999997</ele><time>2026-05-01T16:31:37.693Z</time></trkpt><trkpt lat="45.7807452" lon="8.5974678"><ele>214.0</ele><time>2026-05-01T16:31:39.693Z</time></trkpt><trkpt lat="45.7807864" lon="8.5973068"><ele>213.66666666666666</ele><time>2026-05-01T16:31:41.692Z</time></trkpt><trkpt lat="45.7808085" lon="8.5972168"><ele>213.33333333333331</ele><time>2026-05-01T16:31:42.692Z</time></trkpt><trkpt lat="45.7808357" lon="8.5971103"><ele>213.0</ele><time>2026-05-01T16:31:43.693Z</time></trkpt><trkpt lat="45.7808666" lon="8.5969898"><ele>212.66666666666669</ele><time>2026-05-01T16:31:44.693Z</time></trkpt><trkpt lat="45.7808999" lon="8.5968638"><ele>212.33333333333334</ele><time>2026-05-01T16:31:45.693Z</time></trkpt><trkpt lat="45.7809319" lon="8.5967372"><ele>212.0</ele><time>2026-05-01T16:31:46.693Z</time></trkpt><trkpt lat="45.7809644" lon="8.5966036"><ele>212.00000000000003</ele><time>2026-05-01T16:31:47.693Z</time></trkpt><trkpt lat="45.7809958" lon="8.596479"><ele>212.0</ele><time>2026-05-01T16:31:48.693Z</time></trkpt><trkpt lat="45.7810263" lon="8.5963609"><ele>212.0</ele><time>2026-05-01T16:31:49.692Z</time></trkpt><trkpt lat="45.7810542" lon="8.5962529"><ele>212.0</ele><time>2026-05-01T16:31:50.692Z</time></trkpt><trkpt lat="45.7810805" lon="8.5961553"><ele>212.00000000000003</ele><time>2026-05-01T16:31:51.693Z</time></trkpt><trkpt lat="45.7811187" lon="8.5960218"><ele>212.0</ele><time>2026-05-01T16:31:53.692Z</time></trkpt><trkpt lat="45.7811506" lon="8.5959274"><ele>212.00000000000003</ele><time>2026-05-01T16:31:57.693Z</time></trkpt><trkpt lat="45.7812111" lon="8.5959004"><ele>212.0</ele><time>2026-05-01T16:32:00.693Z</time></trkpt><trkpt lat="45.7812797" lon="8.5959048"><ele>212.0</ele><time>2026-05-01T16:32:02.692Z</time></trkpt><trkpt lat="45.7813865" lon="8.5959156"><ele>212.0</ele><time>2026-05-01T16:32:04.693Z</time></trkpt><trkpt lat="45.7814506" lon="8.5959211"><ele>212.00000000000003</ele><time>2026-05-01T16:32:05.692Z</time></trkpt><trkpt lat="45.7815198" lon="8.5959258"><ele>212.0</ele><time>2026-05-01T16:32:06.693Z</time></trkpt><trkpt lat="45.7815969" lon="8.5959287"><ele>212.0</ele><time>2026-05-01T16:32:07.692Z</time></trkpt><trkpt lat="45.7816923" lon="8.5959309"><ele>212.0</ele><time>2026-05-01T16:32:08.693Z</time></trkpt><trkpt lat="45.781795" lon="8.5959338"><ele>212.0</ele><time>2026-05-01T16:32:09.693Z</time></trkpt><trkpt lat="45.7819009" lon="8.5959368"><ele>212.0</ele><time>2026-05-01T16:32:10.693Z</time></trkpt><trkpt lat="45.7820122" lon="8.5959415"><ele>212.0</ele><time>2026-05-01T16:32:11.692Z</time></trkpt><trkpt lat="45.7821306" lon="8.5959476"><ele>212.0</ele><time>2026-05-01T16:32:12.692Z</time></trkpt><trkpt lat="45.7822539" lon="8.5959555"><ele>212.0</ele><time>2026-05-01T16:32:13.692Z</time></trkpt><trkpt lat="45.7823753" lon="8.595966"><ele>212.0</ele><time>2026-05-01T16:32:14.693Z</time></trkpt><trkpt lat="45.7824991" lon="8.5959814"><ele>212.0</ele><time>2026-05-01T16:32:15.692Z</time></trkpt><trkpt lat="45.7826273" lon="8.5959976"><ele>212.0</ele><time>2026-05-01T16:32:16.692Z</time></trkpt><trkpt lat="45.7827511" lon="8.5960127"><ele>212.0</ele><time>2026-05-01T16:32:17.692Z</time></trkpt><trkpt lat="45.7828751" lon="8.5960168"><ele>212.0</ele><time>2026-05-01T16:32:18.692Z</time></trkpt><trkpt lat="45.7830008" lon="8.5960055"><ele>212.0</ele><time>2026-05-01T16:32:19.693Z</time></trkpt><trkpt lat="45.7831259" lon="8.5959759"><ele>212.0</ele><time>2026-05-01T16:32:20.692Z</time></trkpt><trkpt lat="45.7832501" lon="8.5959287"><ele>212.0</ele><time>2026-05-01T16:32:21.693Z</time></trkpt><trkpt lat="45.7833712" lon="8.5958682"><ele>212.0</ele><time>2026-05-01T16:32:22.692Z</time></trkpt><trkpt lat="45.7834845" lon="8.5958025"><ele>212.0</ele><time>2026-05-01T16:32:23.692Z</time></trkpt><trkpt lat="45.7835942" lon="8.5957362"><ele>212.2</ele><time>2026-05-01T16:32:24.693Z</time></trkpt><trkpt lat="45.7836855" lon="8.5956798"><ele>212.39999999999998</ele><time>2026-05-01T16:32:25.693Z</time></trkpt><trkpt lat="45.783765" lon="8.59563"><ele>212.60000000000002</ele><time>2026-05-01T16:32:26.693Z</time></trkpt><trkpt lat="45.7838426" lon="8.5955815"><ele>212.8</ele><time>2026-05-01T16:32:27.692Z</time></trkpt><trkpt lat="45.7839235" lon="8.5955304"><ele>213.0</ele><time>2026-05-01T16:32:28.693Z</time></trkpt><trkpt lat="45.7840094" lon="8.5954752"><ele>213.0</ele><time>2026-05-01T16:32:29.693Z</time></trkpt><trkpt lat="45.7840962" lon="8.5954157"><ele>213.0</ele><time>2026-05-01T16:32:30.693Z</time></trkpt><trkpt lat="45.7841854" lon="8.5953534"><ele>213.0</ele><time>2026-05-01T16:32:31.692Z</time></trkpt><trkpt lat="45.7842788" lon="8.5952929"><ele>213.0</ele><time>2026-05-01T16:32:32.692Z</time></trkpt><trkpt lat="45.7843746" lon="8.59524"><ele>213.0</ele><time>2026-05-01T16:32:33.692Z</time></trkpt><trkpt lat="45.784472" lon="8.5951782"><ele>213.0</ele><time>2026-05-01T16:32:34.692Z</time></trkpt><trkpt lat="45.7845801" lon="8.5951037"><ele>213.0</ele><time>2026-05-01T16:32:35.693Z</time></trkpt><trkpt lat="45.7846888" lon="8.5950233"><ele>213.0</ele><time>2026-05-01T16:32:36.693Z</time></trkpt><trkpt lat="45.7848033" lon="8.5949377"><ele>213.0</ele><time>2026-05-01T16:32:37.693Z</time></trkpt><trkpt lat="45.7849171" lon="8.5948548"><ele>213.0</ele><time>2026-05-01T16:32:38.693Z</time></trkpt><trkpt lat="45.785037" lon="8.5947711"><ele>213.0</ele><time>2026-05-01T16:32:39.693Z</time></trkpt><trkpt lat="45.7851577" lon="8.5946863"><ele>213.0</ele><time>2026-05-01T16:32:40.693Z</time></trkpt><trkpt lat="45.7852737" lon="8.5946063"><ele>213.0</ele><time>2026-05-01T16:32:41.693Z</time></trkpt><trkpt lat="45.785385" lon="8.5945284"><ele>213.2</ele><time>2026-05-01T16:32:42.693Z</time></trkpt><trkpt lat="45.7854917" lon="8.594452"><ele>213.4</ele><time>2026-05-01T16:32:43.692Z</time></trkpt><trkpt lat="45.7855935" lon="8.5943775"><ele>213.59999999999997</ele><time>2026-05-01T16:32:44.692Z</time></trkpt><trkpt lat="45.7856857" lon="8.5943079"><ele>213.79999999999998</ele><time>2026-05-01T16:32:45.693Z</time></trkpt><trkpt lat="45.7857664" lon="8.5942452"><ele>214.0</ele><time>2026-05-01T16:32:46.693Z</time></trkpt><trkpt lat="45.7858295" lon="8.5941964"><ele>213.99999999999997</ele><time>2026-05-01T16:32:47.693Z</time></trkpt><trkpt lat="45.7859004" lon="8.5941346"><ele>214.0</ele><time>2026-05-01T16:32:49.693Z</time></trkpt><trkpt lat="45.7859661" lon="8.5941142"><ele>214.0</ele><time>2026-05-01T16:33:08.693Z</time></trkpt><trkpt lat="45.786032" lon="8.5941629"><ele>214.0</ele><time>2026-05-01T16:33:10.692Z</time></trkpt><trkpt lat="45.7861103" lon="8.5942321"><ele>213.99999999999997</ele><time>2026-05-01T16:33:12.692Z</time></trkpt><trkpt lat="45.786201" lon="8.5942184"><ele>214.0</ele><time>2026-05-01T16:33:14.693Z</time></trkpt><trkpt lat="45.7862533" lon="8.5940875"><ele>214.0</ele><time>2026-05-01T16:33:16.693Z</time></trkpt><trkpt lat="45.7862933" lon="8.5939175"><ele>213.99999999999997</ele><time>2026-05-01T16:33:18.693Z</time></trkpt><trkpt lat="45.786331" lon="8.5938357"><ele>213.99999999999997</ele><time>2026-05-01T16:33:19.693Z</time></trkpt><trkpt lat="45.7863835" lon="8.5937469"><ele>214.0</ele><time>2026-05-01T16:33:20.693Z</time></trkpt><trkpt lat="45.7864418" lon="8.5936564"><ele>214.0</ele><time>2026-05-01T16:33:21.693Z</time></trkpt><trkpt lat="45.7865042" lon="8.5935626"><ele>214.39999999999998</ele><time>2026-05-01T16:33:22.692Z</time></trkpt><trkpt lat="45.7865684" lon="8.593467"><ele>214.79999999999998</ele><time>2026-05-01T16:33:23.693Z</time></trkpt><trkpt lat="45.7866354" lon="8.5933679"><ele>215.20000000000002</ele><time>2026-05-01T16:33:24.692Z</time></trkpt><trkpt lat="45.7867046" lon="8.5932671"><ele>215.60000000000002</ele><time>2026-05-01T16:33:25.693Z</time></trkpt><trkpt lat="45.7867801" lon="8.593168"><ele>216.0</ele><time>2026-05-01T16:33:26.693Z</time></trkpt><trkpt lat="45.7868618" lon="8.5930768"><ele>216.0</ele><time>2026-05-01T16:33:27.693Z</time></trkpt><trkpt lat="45.7869529" lon="8.5929852"><ele>216.00000000000003</ele><time>2026-05-01T16:33:28.693Z</time></trkpt><trkpt lat="45.7870434" lon="8.5929013"><ele>216.00000000000003</ele><time>2026-05-01T16:33:29.693Z</time></trkpt><trkpt lat="45.7871341" lon="8.5928185"><ele>216.0</ele><time>2026-05-01T16:33:30.693Z</time></trkpt><trkpt lat="45.7872354" lon="8.592726"><ele>216.0</ele><time>2026-05-01T16:33:31.692Z</time></trkpt><trkpt lat="45.7873401" lon="8.5926299"><ele>216.75</ele><time>2026-05-01T16:33:32.692Z</time></trkpt><trkpt lat="45.7874527" lon="8.5925278"><ele>217.5</ele><time>2026-05-01T16:33:33.692Z</time></trkpt><trkpt lat="45.7875706" lon="8.5924228"><ele>218.25</ele><time>2026-05-01T16:33:34.693Z</time></trkpt><trkpt lat="45.7876973" lon="8.5923134"><ele>219.0</ele><time>2026-05-01T16:33:35.693Z</time></trkpt><trkpt lat="45.7878233" lon="8.5921993"><ele>219.0</ele><time>2026-05-01T16:33:36.692Z</time></trkpt><trkpt lat="45.7879413" lon="8.5920902"><ele>219.0</ele><time>2026-05-01T16:33:37.692Z</time></trkpt><trkpt lat="45.7880497" lon="8.5919895"><ele>219.0</ele><time>2026-05-01T16:33:38.693Z</time></trkpt><trkpt lat="45.7881595" lon="8.5918897"><ele>219.0</ele><time>2026-05-01T16:33:39.693Z</time></trkpt><trkpt lat="45.7882538" lon="8.5918017"><ele>219.83333333333334</ele><time>2026-05-01T16:33:40.692Z</time></trkpt><trkpt lat="45.7883356" lon="8.5917235"><ele>220.66666666666669</ele><time>2026-05-01T16:33:41.692Z</time></trkpt><trkpt lat="45.7884026" lon="8.591658"><ele>221.5</ele><time>2026-05-01T16:33:42.693Z</time></trkpt><trkpt lat="45.7884869" lon="8.5915762"><ele>222.33333333333334</ele><time>2026-05-01T16:33:44.692Z</time></trkpt><trkpt lat="45.7885531" lon="8.591491"><ele>223.16666666666669</ele><time>2026-05-01T16:33:58.693Z</time></trkpt><trkpt lat="45.7886046" lon="8.5914205"><ele>224.0</ele><time>2026-05-01T16:34:00.692Z</time></trkpt><trkpt lat="45.7886868" lon="8.5913123"><ele>224.00000000000003</ele><time>2026-05-01T16:34:02.692Z</time></trkpt><trkpt lat="45.788735" lon="8.5912505"><ele>224.0</ele><time>2026-05-01T16:34:03.692Z</time></trkpt><trkpt lat="45.788785" lon="8.5911855"><ele>224.0</ele><time>2026-05-01T16:34:04.692Z</time></trkpt><trkpt lat="45.7888415" lon="8.5911111"><ele>224.0</ele><time>2026-05-01T16:34:05.693Z</time></trkpt><trkpt lat="45.7889057" lon="8.5910254"><ele>224.00000000000003</ele><time>2026-05-01T16:34:06.692Z</time></trkpt><trkpt lat="45.7889751" lon="8.5909324"><ele>224.0</ele><time>2026-05-01T16:34:07.692Z</time></trkpt><trkpt lat="45.7890526" lon="8.5908279"><ele>224.39999999999998</ele><time>2026-05-01T16:34:08.693Z</time></trkpt><trkpt lat="45.7891257" lon="8.5907228"><ele>224.79999999999998</ele><time>2026-05-01T16:34:09.692Z</time></trkpt><trkpt lat="45.789201" lon="8.5906134"><ele>225.20000000000002</ele><time>2026-05-01T16:34:10.693Z</time></trkpt><trkpt lat="45.7892849" lon="8.5904952"><ele>225.60000000000002</ele><time>2026-05-01T16:34:11.692Z</time></trkpt><trkpt lat="45.7893701" lon="8.5903779"><ele>226.0</ele><time>2026-05-01T16:34:12.692Z</time></trkpt><trkpt lat="45.7894671" lon="8.5902465"><ele>227.0</ele><time>2026-05-01T16:34:13.692Z</time></trkpt><trkpt lat="45.789565" lon="8.590113"><ele>228.0</ele><time>2026-05-01T16:34:14.692Z</time></trkpt><trkpt lat="45.7896632" lon="8.5899799"><ele>229.0</ele><time>2026-05-01T16:34:15.692Z</time></trkpt><trkpt lat="45.789759" lon="8.5898465"><ele>230.0</ele><time>2026-05-01T16:34:16.693Z</time></trkpt><trkpt lat="45.7898553" lon="8.5897123"><ele>230.0</ele><time>2026-05-01T16:34:17.692Z</time></trkpt><trkpt lat="45.7899511" lon="8.58958"><ele>230.0</ele><time>2026-05-01T16:34:18.692Z</time></trkpt><trkpt lat="45.7900462" lon="8.5894353"><ele>230.0</ele><time>2026-05-01T16:34:19.692Z</time></trkpt><trkpt lat="45.7901305" lon="8.5892855"><ele>230.0</ele><time>2026-05-01T16:34:20.692Z</time></trkpt><trkpt lat="45.7902119" lon="8.5891228"><ele>230.25</ele><time>2026-05-01T16:34:21.693Z</time></trkpt><trkpt lat="45.7902887" lon="8.5889598"><ele>230.5</ele><time>2026-05-01T16:34:22.692Z</time></trkpt><trkpt lat="45.7903608" lon="8.588801"><ele>230.75</ele><time>2026-05-01T16:34:23.692Z</time></trkpt><trkpt lat="45.7904299" lon="8.5886468"><ele>231.0</ele><time>2026-05-01T16:34:24.693Z</time></trkpt><trkpt lat="45.7904942" lon="8.5885038"><ele>231.0</ele><time>2026-05-01T16:34:25.693Z</time></trkpt><trkpt lat="45.7905517" lon="8.5883738"><ele>231.00000000000003</ele><time>2026-05-01T16:34:26.692Z</time></trkpt><trkpt lat="45.7906014" lon="8.5882606"><ele>231.00000000000003</ele><time>2026-05-01T16:34:27.692Z</time></trkpt><trkpt lat="45.7906409" lon="8.5881685"><ele>231.0</ele><time>2026-05-01T16:34:28.692Z</time></trkpt><trkpt lat="45.7907018" lon="8.588057"><ele>231.0</ele><time>2026-05-01T16:34:30.692Z</time></trkpt><trkpt lat="45.7908012" lon="8.5880921"><ele>231.0</ele><time>2026-05-01T16:34:33.693Z</time></trkpt><trkpt lat="45.7908951" lon="8.5882056"><ele>231.00000000000003</ele><time>2026-05-01T16:34:35.692Z</time></trkpt><trkpt lat="45.7909515" lon="8.5882751"><ele>231.00000000000003</ele><time>2026-05-01T16:34:36.692Z</time></trkpt><trkpt lat="45.7910157" lon="8.5883543"><ele>231.0</ele><time>2026-05-01T16:34:37.693Z</time></trkpt><trkpt lat="45.7910876" lon="8.5884418"><ele>231.0</ele><time>2026-05-01T16:34:38.692Z</time></trkpt><trkpt lat="45.7911607" lon="8.5885301"><ele>230.0</ele><time>2026-05-01T16:34:39.693Z</time></trkpt><trkpt lat="45.7912411" lon="8.588628"><ele>229.00000000000003</ele><time>2026-05-01T16:34:40.693Z</time></trkpt><trkpt lat="45.7913225" lon="8.5887267"><ele>228.00000000000003</ele><time>2026-05-01T16:34:41.692Z</time></trkpt><trkpt lat="45.791406" lon="8.5888264"><ele>227.0</ele><time>2026-05-01T16:34:42.693Z</time></trkpt><trkpt lat="45.7914929" lon="8.5889258"><ele>226.0</ele><time>2026-05-01T16:34:43.692Z</time></trkpt><trkpt lat="45.7915804" lon="8.5890247"><ele>226.0</ele><time>2026-05-01T16:34:44.693Z</time></trkpt><trkpt lat="45.7916664" lon="8.5891247"><ele>226.00000000000003</ele><time>2026-05-01T16:34:45.692Z</time></trkpt><trkpt lat="45.7917481" lon="8.5892224"><ele>226.00000000000003</ele><time>2026-05-01T16:34:46.692Z</time></trkpt><trkpt lat="45.7918226" lon="8.5893134"><ele>226.0</ele><time>2026-05-01T16:34:47.693Z</time></trkpt><trkpt lat="45.7918964" lon="8.5894035"><ele>226.0</ele><time>2026-05-01T16:34:48.692Z</time></trkpt><trkpt lat="45.7919691" lon="8.5894807"><ele>224.20000000000002</ele><time>2026-05-01T16:34:49.692Z</time></trkpt><trkpt lat="45.7920517" lon="8.58955"><ele>222.40000000000003</ele><time>2026-05-01T16:34:50.692Z</time></trkpt><trkpt lat="45.7921448" lon="8.5896089"><ele>220.6</ele><time>2026-05-01T16:34:51.693Z</time></trkpt><trkpt lat="45.7922495" lon="8.5896575"><ele>218.8</ele><time>2026-05-01T16:34:52.693Z</time></trkpt><trkpt lat="45.7923627" lon="8.5896982"><ele>217.0</ele><time>2026-05-01T16:34:53.693Z</time></trkpt><trkpt lat="45.7924823" lon="8.5897387"><ele>217.0</ele><time>2026-05-01T16:34:54.693Z</time></trkpt><trkpt lat="45.7925985" lon="8.5897883"><ele>217.0</ele><time>2026-05-01T16:34:55.693Z</time></trkpt><trkpt lat="45.7927201" lon="8.5898625"><ele>217.0</ele><time>2026-05-01T16:34:56.692Z</time></trkpt><trkpt lat="45.7928355" lon="8.5899557"><ele>217.0</ele><time>2026-05-01T16:34:57.692Z</time></trkpt><trkpt lat="45.7929452" lon="8.5900608"><ele>216.75</ele><time>2026-05-01T16:34:58.693Z</time></trkpt><trkpt lat="45.793052" lon="8.5901709"><ele>216.5</ele><time>2026-05-01T16:34:59.693Z</time></trkpt><trkpt lat="45.7931537" lon="8.5902772"><ele>216.25</ele><time>2026-05-01T16:35:00.693Z</time></trkpt><trkpt lat="45.7932512" lon="8.5903764"><ele>216.0</ele><time>2026-05-01T16:35:01.692Z</time></trkpt><trkpt lat="45.7933395" lon="8.5904678"><ele>215.83333333333334</ele><time>2026-05-01T16:35:02.693Z</time></trkpt><trkpt lat="45.793415" lon="8.5905479"><ele>215.66666666666669</ele><time>2026-05-01T16:35:03.693Z</time></trkpt><trkpt lat="45.7934809" lon="8.5906193"><ele>215.5</ele><time>2026-05-01T16:35:04.693Z</time></trkpt><trkpt lat="45.7935516" lon="8.5906961"><ele>215.33333333333334</ele><time>2026-05-01T16:35:06.693Z</time></trkpt><trkpt lat="45.7936375" lon="8.5906771"><ele>215.16666666666669</ele><time>2026-05-01T16:35:18.693Z</time></trkpt><trkpt lat="45.7936883" lon="8.5905587"><ele>215.0</ele><time>2026-05-01T16:35:20.692Z</time></trkpt><trkpt lat="45.793757" lon="8.5903972"><ele>214.0</ele><time>2026-05-01T16:35:22.693Z</time></trkpt><trkpt lat="45.7937983" lon="8.5902986"><ele>213.0</ele><time>2026-05-01T16:35:23.692Z</time></trkpt><trkpt lat="45.7938455" lon="8.5901849"><ele>212.0</ele><time>2026-05-01T16:35:24.692Z</time></trkpt><trkpt lat="45.7938967" lon="8.5900611"><ele>211.0</ele><time>2026-05-01T16:35:25.692Z</time></trkpt><trkpt lat="45.79395" lon="8.5899328"><ele>210.0</ele><time>2026-05-01T16:35:26.692Z</time></trkpt><trkpt lat="45.7940062" lon="8.5897997"><ele>210.0</ele><time>2026-05-01T16:35:27.693Z</time></trkpt><trkpt lat="45.7940708" lon="8.5896481"><ele>210.0</ele><time>2026-05-01T16:35:28.692Z</time></trkpt><trkpt lat="45.7941405" lon="8.5894841"><ele>210.0</ele><time>2026-05-01T16:35:29.692Z</time></trkpt><trkpt lat="45.7942108" lon="8.5893201"><ele>210.0</ele><time>2026-05-01T16:35:30.693Z</time></trkpt><trkpt lat="45.7942848" lon="8.5891477"><ele>210.0</ele><time>2026-05-01T16:35:31.692Z</time></trkpt><trkpt lat="45.7943501" lon="8.5889873"><ele>210.0</ele><time>2026-05-01T16:35:32.692Z</time></trkpt><trkpt lat="45.7944109" lon="8.5888223"><ele>210.0</ele><time>2026-05-01T16:35:33.692Z</time></trkpt><trkpt lat="45.7944575" lon="8.5886554"><ele>210.0</ele><time>2026-05-01T16:35:34.693Z</time></trkpt><trkpt lat="45.794488" lon="8.5884886"><ele>210.0</ele><time>2026-05-01T16:35:35.692Z</time></trkpt><trkpt lat="45.7945068" lon="8.5883231"><ele>210.0</ele><time>2026-05-01T16:35:36.692Z</time></trkpt><trkpt lat="45.7945219" lon="8.5881585"><ele>210.0</ele><time>2026-05-01T16:35:37.693Z</time></trkpt><trkpt lat="45.7945337" lon="8.5879935"><ele>210.0</ele><time>2026-05-01T16:35:38.693Z</time></trkpt><trkpt lat="45.7945447" lon="8.5878161"><ele>209.75</ele><time>2026-05-01T16:35:39.693Z</time></trkpt><trkpt lat="45.7945561" lon="8.587636"><ele>209.5</ele><time>2026-05-01T16:35:40.693Z</time></trkpt><trkpt lat="45.7945688" lon="8.5874527"><ele>209.25</ele><time>2026-05-01T16:35:41.692Z</time></trkpt><trkpt lat="45.7945808" lon="8.5872589"><ele>209.0</ele><time>2026-05-01T16:35:42.692Z</time></trkpt><trkpt lat="45.7945928" lon="8.5870603"><ele>209.5</ele><time>2026-05-01T16:35:43.693Z</time></trkpt><trkpt lat="45.7946042" lon="8.5868621"><ele>210.0</ele><time>2026-05-01T16:35:44.693Z</time></trkpt><trkpt lat="45.7946151" lon="8.5866701"><ele>210.5</ele><time>2026-05-01T16:35:45.693Z</time></trkpt><trkpt lat="45.7946299" lon="8.5864881"><ele>211.0</ele><time>2026-05-01T16:35:46.692Z</time></trkpt><trkpt lat="45.7946435" lon="8.5863074"><ele>211.99999999999997</ele><time>2026-05-01T16:35:47.692Z</time></trkpt><trkpt lat="45.7946568" lon="8.5861476"><ele>213.0</ele><time>2026-05-01T16:35:48.693Z</time></trkpt><trkpt lat="45.7946712" lon="8.5860076"><ele>214.0</ele><time>2026-05-01T16:35:49.693Z</time></trkpt><trkpt lat="45.7946845" lon="8.5859008"><ele>215.0</ele><time>2026-05-01T16:35:50.693Z</time></trkpt><trkpt lat="45.7947407" lon="8.5857958"><ele>215.99999999999997</ele><time>2026-05-01T16:35:52.692Z</time></trkpt><trkpt lat="45.7948078" lon="8.5857933"><ele>217.0</ele><time>2026-05-01T16:35:54.692Z</time></trkpt><trkpt lat="45.794874" lon="8.5857978"><ele>216.99999999999997</ele><time>2026-05-01T16:35:56.693Z</time></trkpt><trkpt lat="45.7949542" lon="8.5857898"><ele>217.0</ele><time>2026-05-01T16:35:58.693Z</time></trkpt><trkpt lat="45.7950477" lon="8.5857677"><ele>217.0</ele><time>2026-05-01T16:36:00.693Z</time></trkpt><trkpt lat="45.7951367" lon="8.5857593"><ele>217.0</ele><time>2026-05-01T16:36:02.692Z</time></trkpt><trkpt lat="45.7952212" lon="8.5858002"><ele>216.99999999999997</ele><time>2026-05-01T16:36:04.692Z</time></trkpt><trkpt lat="45.7952927" lon="8.5858795"><ele>217.0</ele><time>2026-05-01T16:36:06.693Z</time></trkpt><trkpt lat="45.7953649" lon="8.5859675"><ele>215.8</ele><time>2026-05-01T16:36:08.692Z</time></trkpt><trkpt lat="45.7954402" lon="8.5860507"><ele>214.6</ele><time>2026-05-01T16:36:10.692Z</time></trkpt><trkpt lat="45.7955178" lon="8.586135"><ele>213.4</ele><time>2026-05-01T16:36:12.692Z</time></trkpt><trkpt lat="45.7955949" lon="8.586215"><ele>212.20000000000002</ele><time>2026-05-01T16:36:14.693Z</time></trkpt><trkpt lat="45.7956741" lon="8.5863002"><ele>211.0</ele><time>2026-05-01T16:36:16.692Z</time></trkpt><trkpt lat="45.795739" lon="8.5863943"><ele>210.99999999999997</ele><time>2026-05-01T16:36:18.693Z</time></trkpt><trkpt lat="45.79579" lon="8.5865037"><ele>211.0</ele><time>2026-05-01T16:36:20.692Z</time></trkpt><trkpt lat="45.7958318" lon="8.5866107"><ele>211.0</ele><time>2026-05-01T16:36:22.692Z</time></trkpt><trkpt lat="45.7958933" lon="8.5866903"><ele>211.0</ele><time>2026-05-01T16:36:24.693Z</time></trkpt><trkpt lat="45.7959748" lon="8.5867352"><ele>210.99999999999997</ele><time>2026-05-01T16:36:26.692Z</time></trkpt><trkpt lat="45.7960646" lon="8.5867672"><ele>211.0</ele><time>2026-05-01T16:36:28.693Z</time></trkpt><trkpt lat="45.7961543" lon="8.5868075"><ele>210.66666666666666</ele><time>2026-05-01T16:36:30.692Z</time></trkpt><trkpt lat="45.7962288" lon="8.5868788"><ele>210.33333333333331</ele><time>2026-05-01T16:36:32.692Z</time></trkpt><trkpt lat="45.7962814" lon="8.5869753"><ele>210.0</ele><time>2026-05-01T16:36:34.692Z</time></trkpt><trkpt lat="45.7963483" lon="8.5870505"><ele>209.66666666666669</ele><time>2026-05-01T16:36:37.693Z</time></trkpt><trkpt lat="45.7964137" lon="8.5870671"><ele>209.33333333333334</ele><time>2026-05-01T16:36:39.692Z</time></trkpt><trkpt lat="45.7964863" lon="8.5870969"><ele>209.0</ele><time>2026-05-01T16:36:41.693Z</time></trkpt><trkpt lat="45.7965567" lon="8.5871549"><ele>209.0</ele><time>2026-05-01T16:36:44.693Z</time></trkpt></trkseg></trk></gpx>